<?xml version="1.0" encoding="UTF-8" standalone="no" ?>
<gpx xmlns="http://www.topografix.com/GPX/1/1" xmlns:xsi="http://www.w3.org/2001/XMLSchema-instance" xsi:schemaLocation="http://www.topografix.com/GPX/1/1 http://www.topografix.com/GPX/1/1/gpx.xsd" version="1.1" creator="VisuGPX - https://www.visugpx.com">
  <metadata>
    <name>Entre Biron et Tourliac</name>
    <desc><![CDATA[Une sortie vtt calme mais à faire par temps sec !]]></desc>
  </metadata>
  <trk>
    <name><![CDATA[16-MARS-14 12:18:36]]></name>
    <trkseg>
      <trkpt lat="44.63127" lon="0.87155">
        <ele>214.99</ele>
        <time>2014-03-16T08:08:05Z</time>
      </trkpt>
      <trkpt lat="44.63127" lon="0.8715">
        <ele>214.99</ele>
        <time>2014-03-16T08:08:07Z</time>
      </trkpt>
      <trkpt lat="44.63121" lon="0.87129">
        <ele>214.99</ele>
        <time>2014-03-16T08:08:17Z</time>
      </trkpt>
      <trkpt lat="44.63112" lon="0.8713">
        <ele>214.99</ele>
        <time>2014-03-16T08:08:22Z</time>
      </trkpt>
      <trkpt lat="44.63091" lon="0.87152">
        <ele>207.78</ele>
        <time>2014-03-16T08:08:31Z</time>
      </trkpt>
      <trkpt lat="44.63086" lon="0.87161">
        <ele>208.74</ele>
        <time>2014-03-16T08:08:33Z</time>
      </trkpt>
      <trkpt lat="44.63081" lon="0.87178">
        <ele>208.74</ele>
        <time>2014-03-16T08:08:36Z</time>
      </trkpt>
      <trkpt lat="44.63072" lon="0.87281">
        <ele>202.49</ele>
        <time>2014-03-16T08:08:49Z</time>
      </trkpt>
      <trkpt lat="44.63066" lon="0.87428">
        <ele>194.8</ele>
        <time>2014-03-16T08:09:02Z</time>
      </trkpt>
      <trkpt lat="44.63065" lon="0.87441">
        <ele>194.32</ele>
        <time>2014-03-16T08:09:03Z</time>
      </trkpt>
      <trkpt lat="44.63034" lon="0.87503">
        <ele>190</ele>
        <time>2014-03-16T08:09:09Z</time>
      </trkpt>
      <trkpt lat="44.63025" lon="0.87506">
        <ele>190</ele>
        <time>2014-03-16T08:09:10Z</time>
      </trkpt>
      <trkpt lat="44.62935" lon="0.87531">
        <ele>190.96</ele>
        <time>2014-03-16T08:09:23Z</time>
      </trkpt>
      <trkpt lat="44.62853" lon="0.87543">
        <ele>192.88</ele>
        <time>2014-03-16T08:09:37Z</time>
      </trkpt>
      <trkpt lat="44.62838" lon="0.87537">
        <ele>193.36</ele>
        <time>2014-03-16T08:09:40Z</time>
      </trkpt>
      <trkpt lat="44.62766" lon="0.87472">
        <ele>190.96</ele>
        <time>2014-03-16T08:09:54Z</time>
      </trkpt>
      <trkpt lat="44.62669" lon="0.87363">
        <ele>183.75</ele>
        <time>2014-03-16T08:10:08Z</time>
      </trkpt>
      <trkpt lat="44.62556" lon="0.87229">
        <ele>180.87</ele>
        <time>2014-03-16T08:10:26Z</time>
      </trkpt>
      <trkpt lat="44.62528" lon="0.87198">
        <ele>181.35</ele>
        <time>2014-03-16T08:10:32Z</time>
      </trkpt>
      <trkpt lat="44.62497" lon="0.87187">
        <ele>180.87</ele>
        <time>2014-03-16T08:10:40Z</time>
      </trkpt>
      <trkpt lat="44.62486" lon="0.8718">
        <ele>180.87</ele>
        <time>2014-03-16T08:10:43Z</time>
      </trkpt>
      <trkpt lat="44.62462" lon="0.87184">
        <ele>181.83</ele>
        <time>2014-03-16T08:10:50Z</time>
      </trkpt>
      <trkpt lat="44.62451" lon="0.87208">
        <ele>182.31</ele>
        <time>2014-03-16T08:10:55Z</time>
      </trkpt>
      <trkpt lat="44.62432" lon="0.87247">
        <ele>182.31</ele>
        <time>2014-03-16T08:11:03Z</time>
      </trkpt>
      <trkpt lat="44.62419" lon="0.8728">
        <ele>183.27</ele>
        <time>2014-03-16T08:11:08Z</time>
      </trkpt>
      <trkpt lat="44.62393" lon="0.87323">
        <ele>183.27</ele>
        <time>2014-03-16T08:11:15Z</time>
      </trkpt>
      <trkpt lat="44.62379" lon="0.87351">
        <ele>182.31</ele>
        <time>2014-03-16T08:11:24Z</time>
      </trkpt>
      <trkpt lat="44.62367" lon="0.87372">
        <ele>184.71</ele>
        <time>2014-03-16T08:11:34Z</time>
      </trkpt>
      <trkpt lat="44.62353" lon="0.87401">
        <ele>186.63</ele>
        <time>2014-03-16T08:11:41Z</time>
      </trkpt>
      <trkpt lat="44.62328" lon="0.8746">
        <ele>182.31</ele>
        <time>2014-03-16T08:11:53Z</time>
      </trkpt>
      <trkpt lat="44.62325" lon="0.87463">
        <ele>181.83</ele>
        <time>2014-03-16T08:11:54Z</time>
      </trkpt>
      <trkpt lat="44.62286" lon="0.87451">
        <ele>178.46</ele>
        <time>2014-03-16T08:12:05Z</time>
      </trkpt>
      <trkpt lat="44.62267" lon="0.87444">
        <ele>178.94</ele>
        <time>2014-03-16T08:12:10Z</time>
      </trkpt>
      <trkpt lat="44.62227" lon="0.87437">
        <ele>180.87</ele>
        <time>2014-03-16T08:12:19Z</time>
      </trkpt>
      <trkpt lat="44.62207" lon="0.87429">
        <ele>179.9</ele>
        <time>2014-03-16T08:12:23Z</time>
      </trkpt>
      <trkpt lat="44.6219" lon="0.87429">
        <ele>179.42</ele>
        <time>2014-03-16T08:12:27Z</time>
      </trkpt>
      <trkpt lat="44.62144" lon="0.87425">
        <ele>183.75</ele>
        <time>2014-03-16T08:12:38Z</time>
      </trkpt>
      <trkpt lat="44.62105" lon="0.87433">
        <ele>185.67</ele>
        <time>2014-03-16T08:12:49Z</time>
      </trkpt>
      <trkpt lat="44.62066" lon="0.87424">
        <ele>186.15</ele>
        <time>2014-03-16T08:13:02Z</time>
      </trkpt>
      <trkpt lat="44.62034" lon="0.87419">
        <ele>188.08</ele>
        <time>2014-03-16T08:13:11Z</time>
      </trkpt>
      <trkpt lat="44.61981" lon="0.87402">
        <ele>190.48</ele>
        <time>2014-03-16T08:13:24Z</time>
      </trkpt>
      <trkpt lat="44.61971" lon="0.87398">
        <ele>190.96</ele>
        <time>2014-03-16T08:13:26Z</time>
      </trkpt>
      <trkpt lat="44.61958" lon="0.87389">
        <ele>190</ele>
        <time>2014-03-16T08:13:29Z</time>
      </trkpt>
      <trkpt lat="44.61944" lon="0.87382">
        <ele>188.56</ele>
        <time>2014-03-16T08:13:32Z</time>
      </trkpt>
      <trkpt lat="44.6192" lon="0.87383">
        <ele>186.63</ele>
        <time>2014-03-16T08:13:36Z</time>
      </trkpt>
      <trkpt lat="44.61863" lon="0.87422">
        <ele>186.15</ele>
        <time>2014-03-16T08:13:48Z</time>
      </trkpt>
      <trkpt lat="44.61808" lon="0.87457">
        <ele>182.31</ele>
        <time>2014-03-16T08:14:00Z</time>
      </trkpt>
      <trkpt lat="44.61789" lon="0.87453">
        <ele>180.87</ele>
        <time>2014-03-16T08:14:06Z</time>
      </trkpt>
      <trkpt lat="44.61774" lon="0.8746">
        <ele>177.98</ele>
        <time>2014-03-16T08:14:12Z</time>
      </trkpt>
      <trkpt lat="44.61763" lon="0.87457">
        <ele>176.06</ele>
        <time>2014-03-16T08:14:15Z</time>
      </trkpt>
      <trkpt lat="44.61732" lon="0.87455">
        <ele>172.21</ele>
        <time>2014-03-16T08:14:21Z</time>
      </trkpt>
      <trkpt lat="44.61704" lon="0.87437">
        <ele>170.29</ele>
        <time>2014-03-16T08:14:26Z</time>
      </trkpt>
      <trkpt lat="44.61645" lon="0.87397">
        <ele>168.85</ele>
        <time>2014-03-16T08:14:37Z</time>
      </trkpt>
      <trkpt lat="44.61606" lon="0.87372">
        <ele>174.62</ele>
        <time>2014-03-16T08:14:48Z</time>
      </trkpt>
      <trkpt lat="44.61605" lon="0.87368">
        <ele>175.1</ele>
        <time>2014-03-16T08:14:50Z</time>
      </trkpt>
      <trkpt lat="44.61606" lon="0.87364">
        <ele>174.62</ele>
        <time>2014-03-16T08:15:03Z</time>
      </trkpt>
      <trkpt lat="44.61602" lon="0.87363">
        <ele>174.14</ele>
        <time>2014-03-16T08:15:25Z</time>
      </trkpt>
      <trkpt lat="44.61598" lon="0.87366">
        <ele>173.66</ele>
        <time>2014-03-16T08:15:32Z</time>
      </trkpt>
      <trkpt lat="44.61576" lon="0.8736">
        <ele>172.21</ele>
        <time>2014-03-16T08:15:45Z</time>
      </trkpt>
      <trkpt lat="44.61525" lon="0.87328">
        <ele>171.73</ele>
        <time>2014-03-16T08:16:00Z</time>
      </trkpt>
      <trkpt lat="44.61466" lon="0.87301">
        <ele>170.29</ele>
        <time>2014-03-16T08:16:14Z</time>
      </trkpt>
      <trkpt lat="44.61462" lon="0.87299">
        <ele>170.29</ele>
        <time>2014-03-16T08:16:15Z</time>
      </trkpt>
      <trkpt lat="44.61412" lon="0.87292">
        <ele>171.73</ele>
        <time>2014-03-16T08:16:26Z</time>
      </trkpt>
      <trkpt lat="44.61391" lon="0.8728">
        <ele>171.73</ele>
        <time>2014-03-16T08:16:31Z</time>
      </trkpt>
      <trkpt lat="44.61368" lon="0.87269">
        <ele>171.25</ele>
        <time>2014-03-16T08:16:36Z</time>
      </trkpt>
      <trkpt lat="44.61357" lon="0.87266">
        <ele>171.25</ele>
        <time>2014-03-16T08:16:38Z</time>
      </trkpt>
      <trkpt lat="44.61346" lon="0.87266">
        <ele>170.77</ele>
        <time>2014-03-16T08:16:40Z</time>
      </trkpt>
      <trkpt lat="44.6129" lon="0.87282">
        <ele>172.69</ele>
        <time>2014-03-16T08:16:51Z</time>
      </trkpt>
      <trkpt lat="44.61278" lon="0.87284">
        <ele>173.17</ele>
        <time>2014-03-16T08:16:54Z</time>
      </trkpt>
      <trkpt lat="44.61234" lon="0.87266">
        <ele>175.58</ele>
        <time>2014-03-16T08:17:04Z</time>
      </trkpt>
      <trkpt lat="44.61215" lon="0.8725">
        <ele>174.62</ele>
        <time>2014-03-16T08:17:08Z</time>
      </trkpt>
      <trkpt lat="44.61179" lon="0.87227">
        <ele>174.14</ele>
        <time>2014-03-16T08:17:15Z</time>
      </trkpt>
      <trkpt lat="44.61143" lon="0.87204">
        <ele>178.46</ele>
        <time>2014-03-16T08:17:24Z</time>
      </trkpt>
      <trkpt lat="44.6113" lon="0.87197">
        <ele>177.5</ele>
        <time>2014-03-16T08:17:27Z</time>
      </trkpt>
      <trkpt lat="44.61113" lon="0.87186">
        <ele>176.06</ele>
        <time>2014-03-16T08:17:31Z</time>
      </trkpt>
      <trkpt lat="44.6108" lon="0.87168">
        <ele>173.17</ele>
        <time>2014-03-16T08:17:38Z</time>
      </trkpt>
      <trkpt lat="44.61038" lon="0.87143">
        <ele>167.89</ele>
        <time>2014-03-16T08:17:46Z</time>
      </trkpt>
      <trkpt lat="44.61035" lon="0.8714">
        <ele>166.93</ele>
        <time>2014-03-16T08:17:48Z</time>
      </trkpt>
      <trkpt lat="44.61034" lon="0.87093">
        <ele>166.45</ele>
        <time>2014-03-16T08:18:00Z</time>
      </trkpt>
      <trkpt lat="44.61023" lon="0.87047">
        <ele>167.41</ele>
        <time>2014-03-16T08:18:10Z</time>
      </trkpt>
      <trkpt lat="44.61042" lon="0.8699">
        <ele>168.37</ele>
        <time>2014-03-16T08:18:21Z</time>
      </trkpt>
      <trkpt lat="44.61048" lon="0.86941">
        <ele>171.25</ele>
        <time>2014-03-16T08:18:30Z</time>
      </trkpt>
      <trkpt lat="44.61068" lon="0.86901">
        <ele>175.58</ele>
        <time>2014-03-16T08:18:43Z</time>
      </trkpt>
      <trkpt lat="44.61075" lon="0.86867">
        <ele>176.54</ele>
        <time>2014-03-16T08:18:53Z</time>
      </trkpt>
      <trkpt lat="44.61086" lon="0.86835">
        <ele>178.46</ele>
        <time>2014-03-16T08:19:02Z</time>
      </trkpt>
      <trkpt lat="44.61101" lon="0.86791">
        <ele>180.87</ele>
        <time>2014-03-16T08:19:14Z</time>
      </trkpt>
      <trkpt lat="44.61108" lon="0.8675">
        <ele>178.46</ele>
        <time>2014-03-16T08:19:25Z</time>
      </trkpt>
      <trkpt lat="44.61112" lon="0.86731">
        <ele>176.54</ele>
        <time>2014-03-16T08:19:31Z</time>
      </trkpt>
      <trkpt lat="44.61116" lon="0.86715">
        <ele>175.58</ele>
        <time>2014-03-16T08:19:37Z</time>
      </trkpt>
      <trkpt lat="44.61126" lon="0.86684">
        <ele>176.06</ele>
        <time>2014-03-16T08:19:48Z</time>
      </trkpt>
      <trkpt lat="44.61132" lon="0.86649">
        <ele>177.5</ele>
        <time>2014-03-16T08:19:58Z</time>
      </trkpt>
      <trkpt lat="44.6114" lon="0.8661">
        <ele>178.94</ele>
        <time>2014-03-16T08:20:09Z</time>
      </trkpt>
      <trkpt lat="44.61143" lon="0.86592">
        <ele>181.83</ele>
        <time>2014-03-16T08:20:21Z</time>
      </trkpt>
      <trkpt lat="44.61144" lon="0.86587">
        <ele>180.87</ele>
        <time>2014-03-16T08:20:41Z</time>
      </trkpt>
      <trkpt lat="44.61147" lon="0.86583">
        <ele>181.83</ele>
        <time>2014-03-16T08:21:00Z</time>
      </trkpt>
      <trkpt lat="44.61159" lon="0.8653">
        <ele>184.71</ele>
        <time>2014-03-16T08:21:14Z</time>
      </trkpt>
      <trkpt lat="44.61188" lon="0.86482">
        <ele>185.19</ele>
        <time>2014-03-16T08:21:25Z</time>
      </trkpt>
      <trkpt lat="44.61199" lon="0.86469">
        <ele>185.19</ele>
        <time>2014-03-16T08:21:28Z</time>
      </trkpt>
      <trkpt lat="44.61238" lon="0.86415">
        <ele>184.23</ele>
        <time>2014-03-16T08:21:40Z</time>
      </trkpt>
      <trkpt lat="44.61255" lon="0.86411">
        <ele>184.71</ele>
        <time>2014-03-16T08:21:45Z</time>
      </trkpt>
      <trkpt lat="44.61303" lon="0.86457">
        <ele>187.11</ele>
        <time>2014-03-16T08:22:00Z</time>
      </trkpt>
      <trkpt lat="44.61364" lon="0.86515">
        <ele>187.59</ele>
        <time>2014-03-16T08:22:16Z</time>
      </trkpt>
      <trkpt lat="44.61375" lon="0.86526">
        <ele>187.59</ele>
        <time>2014-03-16T08:22:20Z</time>
      </trkpt>
      <trkpt lat="44.61387" lon="0.86502">
        <ele>187.59</ele>
        <time>2014-03-16T08:22:27Z</time>
      </trkpt>
      <trkpt lat="44.61415" lon="0.86455">
        <ele>184.71</ele>
        <time>2014-03-16T08:22:37Z</time>
      </trkpt>
      <trkpt lat="44.61436" lon="0.86415">
        <ele>179.9</ele>
        <time>2014-03-16T08:22:43Z</time>
      </trkpt>
      <trkpt lat="44.61446" lon="0.86403">
        <ele>178.46</ele>
        <time>2014-03-16T08:22:45Z</time>
      </trkpt>
      <trkpt lat="44.61458" lon="0.86377">
        <ele>176.54</ele>
        <time>2014-03-16T08:22:50Z</time>
      </trkpt>
      <trkpt lat="44.61459" lon="0.86369">
        <ele>176.06</ele>
        <time>2014-03-16T08:22:52Z</time>
      </trkpt>
      <trkpt lat="44.61465" lon="0.86335">
        <ele>175.1</ele>
        <time>2014-03-16T08:22:58Z</time>
      </trkpt>
      <trkpt lat="44.61512" lon="0.8626">
        <ele>171.73</ele>
        <time>2014-03-16T08:23:09Z</time>
      </trkpt>
      <trkpt lat="44.61561" lon="0.86174">
        <ele>168.37</ele>
        <time>2014-03-16T08:23:21Z</time>
      </trkpt>
      <trkpt lat="44.61585" lon="0.86141">
        <ele>166.45</ele>
        <time>2014-03-16T08:23:26Z</time>
      </trkpt>
      <trkpt lat="44.61604" lon="0.86112">
        <ele>165</ele>
        <time>2014-03-16T08:23:32Z</time>
      </trkpt>
      <trkpt lat="44.61648" lon="0.86046">
        <ele>162.12</ele>
        <time>2014-03-16T08:23:44Z</time>
      </trkpt>
      <trkpt lat="44.61644" lon="0.8603">
        <ele>161.64</ele>
        <time>2014-03-16T08:23:48Z</time>
      </trkpt>
      <trkpt lat="44.61585" lon="0.85973">
        <ele>160.68</ele>
        <time>2014-03-16T08:24:02Z</time>
      </trkpt>
      <trkpt lat="44.61573" lon="0.85953">
        <ele>159.24</ele>
        <time>2014-03-16T08:24:09Z</time>
      </trkpt>
      <trkpt lat="44.61578" lon="0.85934">
        <ele>156.83</ele>
        <time>2014-03-16T08:24:16Z</time>
      </trkpt>
      <trkpt lat="44.61595" lon="0.85916">
        <ele>154.91</ele>
        <time>2014-03-16T08:24:27Z</time>
      </trkpt>
      <trkpt lat="44.61607" lon="0.859">
        <ele>158.27</ele>
        <time>2014-03-16T08:24:38Z</time>
      </trkpt>
      <trkpt lat="44.61627" lon="0.85881">
        <ele>163.08</ele>
        <time>2014-03-16T08:24:50Z</time>
      </trkpt>
      <trkpt lat="44.61658" lon="0.8587">
        <ele>170.29</ele>
        <time>2014-03-16T08:25:06Z</time>
      </trkpt>
      <trkpt lat="44.61662" lon="0.85868">
        <ele>171.73</ele>
        <time>2014-03-16T08:25:19Z</time>
      </trkpt>
      <trkpt lat="44.6166" lon="0.85867">
        <ele>173.66</ele>
        <time>2014-03-16T08:25:35Z</time>
      </trkpt>
      <trkpt lat="44.6166" lon="0.85866">
        <ele>172.69</ele>
        <time>2014-03-16T08:25:51Z</time>
      </trkpt>
      <trkpt lat="44.61661" lon="0.85868">
        <ele>172.69</ele>
        <time>2014-03-16T08:26:06Z</time>
      </trkpt>
      <trkpt lat="44.61658" lon="0.85864">
        <ele>169.81</ele>
        <time>2014-03-16T08:26:32Z</time>
      </trkpt>
      <trkpt lat="44.61657" lon="0.85864">
        <ele>168.37</ele>
        <time>2014-03-16T08:26:45Z</time>
      </trkpt>
      <trkpt lat="44.61653" lon="0.85829">
        <ele>171.25</ele>
        <time>2014-03-16T08:26:56Z</time>
      </trkpt>
      <trkpt lat="44.61663" lon="0.85779">
        <ele>169.33</ele>
        <time>2014-03-16T08:27:07Z</time>
      </trkpt>
      <trkpt lat="44.61668" lon="0.85746">
        <ele>166.45</ele>
        <time>2014-03-16T08:27:13Z</time>
      </trkpt>
      <trkpt lat="44.61693" lon="0.85666">
        <ele>159.72</ele>
        <time>2014-03-16T08:27:25Z</time>
      </trkpt>
      <trkpt lat="44.617" lon="0.85641">
        <ele>156.35</ele>
        <time>2014-03-16T08:27:28Z</time>
      </trkpt>
      <trkpt lat="44.61719" lon="0.85578">
        <ele>147.22</ele>
        <time>2014-03-16T08:27:36Z</time>
      </trkpt>
      <trkpt lat="44.61729" lon="0.85552">
        <ele>143.37</ele>
        <time>2014-03-16T08:27:40Z</time>
      </trkpt>
      <trkpt lat="44.61737" lon="0.85503">
        <ele>136.64</ele>
        <time>2014-03-16T08:27:49Z</time>
      </trkpt>
      <trkpt lat="44.61748" lon="0.85491">
        <ele>135.68</ele>
        <time>2014-03-16T08:27:54Z</time>
      </trkpt>
      <trkpt lat="44.61794" lon="0.85486">
        <ele>140.01</ele>
        <time>2014-03-16T08:28:05Z</time>
      </trkpt>
      <trkpt lat="44.61816" lon="0.85477">
        <ele>141.45</ele>
        <time>2014-03-16T08:28:10Z</time>
      </trkpt>
      <trkpt lat="44.61863" lon="0.8545">
        <ele>141.45</ele>
        <time>2014-03-16T08:28:20Z</time>
      </trkpt>
      <trkpt lat="44.6187" lon="0.85433">
        <ele>140.97</ele>
        <time>2014-03-16T08:28:23Z</time>
      </trkpt>
      <trkpt lat="44.61877" lon="0.85404">
        <ele>141.45</ele>
        <time>2014-03-16T08:28:28Z</time>
      </trkpt>
      <trkpt lat="44.61896" lon="0.8536">
        <ele>141.45</ele>
        <time>2014-03-16T08:28:36Z</time>
      </trkpt>
      <trkpt lat="44.61903" lon="0.85339">
        <ele>140.97</ele>
        <time>2014-03-16T08:28:39Z</time>
      </trkpt>
      <trkpt lat="44.61922" lon="0.85307">
        <ele>140.01</ele>
        <time>2014-03-16T08:28:45Z</time>
      </trkpt>
      <trkpt lat="44.61967" lon="0.85238">
        <ele>145.78</ele>
        <time>2014-03-16T08:28:59Z</time>
      </trkpt>
      <trkpt lat="44.61984" lon="0.85212">
        <ele>149.14</ele>
        <time>2014-03-16T08:29:11Z</time>
      </trkpt>
      <trkpt lat="44.61993" lon="0.85201">
        <ele>149.14</ele>
        <time>2014-03-16T08:29:14Z</time>
      </trkpt>
      <trkpt lat="44.62017" lon="0.85187">
        <ele>148.66</ele>
        <time>2014-03-16T08:29:20Z</time>
      </trkpt>
      <trkpt lat="44.62049" lon="0.85199">
        <ele>148.66</ele>
        <time>2014-03-16T08:29:29Z</time>
      </trkpt>
      <trkpt lat="44.62059" lon="0.85211">
        <ele>148.18</ele>
        <time>2014-03-16T08:29:34Z</time>
      </trkpt>
      <trkpt lat="44.62075" lon="0.85236">
        <ele>145.78</ele>
        <time>2014-03-16T08:29:39Z</time>
      </trkpt>
      <trkpt lat="44.6209" lon="0.85259">
        <ele>143.37</ele>
        <time>2014-03-16T08:29:44Z</time>
      </trkpt>
      <trkpt lat="44.62093" lon="0.85268">
        <ele>141.93</ele>
        <time>2014-03-16T08:29:47Z</time>
      </trkpt>
      <trkpt lat="44.62103" lon="0.8528">
        <ele>138.57</ele>
        <time>2014-03-16T08:29:56Z</time>
      </trkpt>
      <trkpt lat="44.62109" lon="0.85292">
        <ele>136.64</ele>
        <time>2014-03-16T08:30:00Z</time>
      </trkpt>
      <trkpt lat="44.62124" lon="0.85341">
        <ele>135.68</ele>
        <time>2014-03-16T08:30:13Z</time>
      </trkpt>
      <trkpt lat="44.62126" lon="0.85344">
        <ele>135.68</ele>
        <time>2014-03-16T08:30:14Z</time>
      </trkpt>
      <trkpt lat="44.62133" lon="0.8535">
        <ele>136.64</ele>
        <time>2014-03-16T08:30:18Z</time>
      </trkpt>
      <trkpt lat="44.62151" lon="0.85378">
        <ele>140.49</ele>
        <time>2014-03-16T08:30:28Z</time>
      </trkpt>
      <trkpt lat="44.62154" lon="0.85381">
        <ele>140.97</ele>
        <time>2014-03-16T08:30:30Z</time>
      </trkpt>
      <trkpt lat="44.62171" lon="0.85399">
        <ele>142.89</ele>
        <time>2014-03-16T08:30:40Z</time>
      </trkpt>
      <trkpt lat="44.62175" lon="0.85406">
        <ele>143.85</ele>
        <time>2014-03-16T08:30:44Z</time>
      </trkpt>
      <trkpt lat="44.62193" lon="0.85421">
        <ele>145.3</ele>
        <time>2014-03-16T08:30:56Z</time>
      </trkpt>
      <trkpt lat="44.62207" lon="0.85439">
        <ele>147.22</ele>
        <time>2014-03-16T08:31:07Z</time>
      </trkpt>
      <trkpt lat="44.62233" lon="0.85458">
        <ele>152.51</ele>
        <time>2014-03-16T08:31:21Z</time>
      </trkpt>
      <trkpt lat="44.62261" lon="0.85477">
        <ele>151.54</ele>
        <time>2014-03-16T08:31:26Z</time>
      </trkpt>
      <trkpt lat="44.62293" lon="0.85491">
        <ele>149.14</ele>
        <time>2014-03-16T08:31:34Z</time>
      </trkpt>
      <trkpt lat="44.62293" lon="0.85497">
        <ele>148.18</ele>
        <time>2014-03-16T08:31:36Z</time>
      </trkpt>
      <trkpt lat="44.62298" lon="0.85543">
        <ele>144.34</ele>
        <time>2014-03-16T08:31:47Z</time>
      </trkpt>
      <trkpt lat="44.62305" lon="0.85592">
        <ele>139.05</ele>
        <time>2014-03-16T08:31:59Z</time>
      </trkpt>
      <trkpt lat="44.62311" lon="0.8565">
        <ele>139.53</ele>
        <time>2014-03-16T08:32:12Z</time>
      </trkpt>
      <trkpt lat="44.62312" lon="0.85655">
        <ele>140.01</ele>
        <time>2014-03-16T08:32:13Z</time>
      </trkpt>
      <trkpt lat="44.6232" lon="0.85684">
        <ele>141.45</ele>
        <time>2014-03-16T08:32:20Z</time>
      </trkpt>
      <trkpt lat="44.62324" lon="0.85709">
        <ele>142.41</ele>
        <time>2014-03-16T08:32:24Z</time>
      </trkpt>
      <trkpt lat="44.62351" lon="0.8574">
        <ele>141.93</ele>
        <time>2014-03-16T08:32:31Z</time>
      </trkpt>
      <trkpt lat="44.62356" lon="0.85729">
        <ele>140.49</ele>
        <time>2014-03-16T08:32:33Z</time>
      </trkpt>
      <trkpt lat="44.6236" lon="0.85718">
        <ele>139.05</ele>
        <time>2014-03-16T08:32:35Z</time>
      </trkpt>
      <trkpt lat="44.62384" lon="0.85676">
        <ele>134.72</ele>
        <time>2014-03-16T08:32:44Z</time>
      </trkpt>
      <trkpt lat="44.62389" lon="0.85666">
        <ele>134.72</ele>
        <time>2014-03-16T08:32:46Z</time>
      </trkpt>
      <trkpt lat="44.62409" lon="0.85637">
        <ele>137.13</ele>
        <time>2014-03-16T08:32:55Z</time>
      </trkpt>
      <trkpt lat="44.62419" lon="0.85624">
        <ele>140.49</ele>
        <time>2014-03-16T08:33:03Z</time>
      </trkpt>
      <trkpt lat="44.62423" lon="0.85618">
        <ele>138.57</ele>
        <time>2014-03-16T08:33:07Z</time>
      </trkpt>
      <trkpt lat="44.62436" lon="0.85596">
        <ele>139.05</ele>
        <time>2014-03-16T08:33:19Z</time>
      </trkpt>
      <trkpt lat="44.62438" lon="0.85595">
        <ele>139.05</ele>
        <time>2014-03-16T08:33:21Z</time>
      </trkpt>
      <trkpt lat="44.62455" lon="0.85574">
        <ele>140.01</ele>
        <time>2014-03-16T08:33:31Z</time>
      </trkpt>
      <trkpt lat="44.62459" lon="0.85565">
        <ele>141.45</ele>
        <time>2014-03-16T08:33:34Z</time>
      </trkpt>
      <trkpt lat="44.62461" lon="0.85552">
        <ele>142.89</ele>
        <time>2014-03-16T08:33:38Z</time>
      </trkpt>
      <trkpt lat="44.62468" lon="0.85538">
        <ele>142.41</ele>
        <time>2014-03-16T08:33:42Z</time>
      </trkpt>
      <trkpt lat="44.62466" lon="0.85525">
        <ele>142.41</ele>
        <time>2014-03-16T08:33:46Z</time>
      </trkpt>
      <trkpt lat="44.62467" lon="0.85515">
        <ele>143.37</ele>
        <time>2014-03-16T08:33:50Z</time>
      </trkpt>
      <trkpt lat="44.62488" lon="0.85497">
        <ele>144.34</ele>
        <time>2014-03-16T08:34:01Z</time>
      </trkpt>
      <trkpt lat="44.62515" lon="0.85478">
        <ele>146.74</ele>
        <time>2014-03-16T08:34:13Z</time>
      </trkpt>
      <trkpt lat="44.62519" lon="0.85473">
        <ele>147.7</ele>
        <time>2014-03-16T08:34:15Z</time>
      </trkpt>
      <trkpt lat="44.62538" lon="0.85443">
        <ele>153.47</ele>
        <time>2014-03-16T08:34:27Z</time>
      </trkpt>
      <trkpt lat="44.62552" lon="0.8541">
        <ele>157.31</ele>
        <time>2014-03-16T08:34:37Z</time>
      </trkpt>
      <trkpt lat="44.62549" lon="0.854">
        <ele>158.75</ele>
        <time>2014-03-16T08:34:41Z</time>
      </trkpt>
      <trkpt lat="44.62532" lon="0.8539">
        <ele>162.12</ele>
        <time>2014-03-16T08:34:51Z</time>
      </trkpt>
      <trkpt lat="44.62513" lon="0.85361">
        <ele>164.04</ele>
        <time>2014-03-16T08:35:05Z</time>
      </trkpt>
      <trkpt lat="44.62512" lon="0.85327">
        <ele>165</ele>
        <time>2014-03-16T08:35:18Z</time>
      </trkpt>
      <trkpt lat="44.62516" lon="0.8529">
        <ele>166.93</ele>
        <time>2014-03-16T08:35:31Z</time>
      </trkpt>
      <trkpt lat="44.62542" lon="0.8526">
        <ele>167.89</ele>
        <time>2014-03-16T08:35:43Z</time>
      </trkpt>
      <trkpt lat="44.62575" lon="0.85251">
        <ele>168.85</ele>
        <time>2014-03-16T08:35:53Z</time>
      </trkpt>
      <trkpt lat="44.62605" lon="0.85205">
        <ele>168.37</ele>
        <time>2014-03-16T08:36:05Z</time>
      </trkpt>
      <trkpt lat="44.62626" lon="0.85141">
        <ele>168.37</ele>
        <time>2014-03-16T08:36:19Z</time>
      </trkpt>
      <trkpt lat="44.62641" lon="0.85095">
        <ele>168.37</ele>
        <time>2014-03-16T08:36:29Z</time>
      </trkpt>
      <trkpt lat="44.62642" lon="0.85092">
        <ele>170.29</ele>
        <time>2014-03-16T08:36:39Z</time>
      </trkpt>
      <trkpt lat="44.62641" lon="0.85088">
        <ele>168.37</ele>
        <time>2014-03-16T08:37:01Z</time>
      </trkpt>
      <trkpt lat="44.62642" lon="0.85087">
        <ele>169.81</ele>
        <time>2014-03-16T08:37:27Z</time>
      </trkpt>
      <trkpt lat="44.62645" lon="0.85085">
        <ele>173.17</ele>
        <time>2014-03-16T08:37:55Z</time>
      </trkpt>
      <trkpt lat="44.62645" lon="0.85088">
        <ele>175.58</ele>
        <time>2014-03-16T08:38:03Z</time>
      </trkpt>
      <trkpt lat="44.62599" lon="0.85074">
        <ele>177.98</ele>
        <time>2014-03-16T08:38:15Z</time>
      </trkpt>
      <trkpt lat="44.62591" lon="0.8507">
        <ele>177.98</ele>
        <time>2014-03-16T08:38:17Z</time>
      </trkpt>
      <trkpt lat="44.62533" lon="0.85043">
        <ele>176.06</ele>
        <time>2014-03-16T08:38:29Z</time>
      </trkpt>
      <trkpt lat="44.62534" lon="0.85024">
        <ele>175.1</ele>
        <time>2014-03-16T08:38:35Z</time>
      </trkpt>
      <trkpt lat="44.62566" lon="0.85006">
        <ele>174.14</ele>
        <time>2014-03-16T08:38:47Z</time>
      </trkpt>
      <trkpt lat="44.62598" lon="0.84987">
        <ele>173.17</ele>
        <time>2014-03-16T08:38:57Z</time>
      </trkpt>
      <trkpt lat="44.62609" lon="0.84978">
        <ele>172.69</ele>
        <time>2014-03-16T08:39:00Z</time>
      </trkpt>
      <trkpt lat="44.62626" lon="0.84961">
        <ele>172.69</ele>
        <time>2014-03-16T08:39:05Z</time>
      </trkpt>
      <trkpt lat="44.62634" lon="0.84957">
        <ele>172.69</ele>
        <time>2014-03-16T08:39:07Z</time>
      </trkpt>
      <trkpt lat="44.62638" lon="0.84928">
        <ele>172.21</ele>
        <time>2014-03-16T08:39:13Z</time>
      </trkpt>
      <trkpt lat="44.62632" lon="0.849">
        <ele>172.21</ele>
        <time>2014-03-16T08:39:22Z</time>
      </trkpt>
      <trkpt lat="44.62623" lon="0.8488">
        <ele>175.1</ele>
        <time>2014-03-16T08:39:32Z</time>
      </trkpt>
      <trkpt lat="44.62624" lon="0.84846">
        <ele>174.14</ele>
        <time>2014-03-16T08:39:42Z</time>
      </trkpt>
      <trkpt lat="44.62615" lon="0.84795">
        <ele>173.66</ele>
        <time>2014-03-16T08:39:53Z</time>
      </trkpt>
      <trkpt lat="44.62608" lon="0.84773">
        <ele>171.25</ele>
        <time>2014-03-16T08:39:59Z</time>
      </trkpt>
      <trkpt lat="44.62609" lon="0.84748">
        <ele>169.81</ele>
        <time>2014-03-16T08:40:06Z</time>
      </trkpt>
      <trkpt lat="44.6261" lon="0.84736">
        <ele>169.81</ele>
        <time>2014-03-16T08:40:08Z</time>
      </trkpt>
      <trkpt lat="44.62617" lon="0.8467">
        <ele>166.93</ele>
        <time>2014-03-16T08:40:19Z</time>
      </trkpt>
      <trkpt lat="44.62624" lon="0.84613">
        <ele>164.04</ele>
        <time>2014-03-16T08:40:26Z</time>
      </trkpt>
      <trkpt lat="44.62631" lon="0.84572">
        <ele>162.12</ele>
        <time>2014-03-16T08:40:32Z</time>
      </trkpt>
      <trkpt lat="44.62634" lon="0.84559">
        <ele>162.6</ele>
        <time>2014-03-16T08:40:34Z</time>
      </trkpt>
      <trkpt lat="44.62639" lon="0.84537">
        <ele>162.12</ele>
        <time>2014-03-16T08:40:38Z</time>
      </trkpt>
      <trkpt lat="44.62643" lon="0.84486">
        <ele>158.75</ele>
        <time>2014-03-16T08:40:45Z</time>
      </trkpt>
      <trkpt lat="44.62645" lon="0.84467">
        <ele>157.79</ele>
        <time>2014-03-16T08:40:47Z</time>
      </trkpt>
      <trkpt lat="44.62655" lon="0.84428">
        <ele>154.91</ele>
        <time>2014-03-16T08:40:51Z</time>
      </trkpt>
      <trkpt lat="44.62664" lon="0.84367">
        <ele>152.99</ele>
        <time>2014-03-16T08:40:57Z</time>
      </trkpt>
      <trkpt lat="44.62659" lon="0.84313">
        <ele>151.06</ele>
        <time>2014-03-16T08:41:07Z</time>
      </trkpt>
      <trkpt lat="44.6265" lon="0.84279">
        <ele>149.62</ele>
        <time>2014-03-16T08:41:12Z</time>
      </trkpt>
      <trkpt lat="44.62651" lon="0.84251">
        <ele>149.62</ele>
        <time>2014-03-16T08:41:16Z</time>
      </trkpt>
      <trkpt lat="44.62671" lon="0.84195">
        <ele>150.58</ele>
        <time>2014-03-16T08:41:25Z</time>
      </trkpt>
      <trkpt lat="44.62691" lon="0.8413">
        <ele>152.03</ele>
        <time>2014-03-16T08:41:38Z</time>
      </trkpt>
      <trkpt lat="44.62695" lon="0.84092">
        <ele>152.51</ele>
        <time>2014-03-16T08:41:48Z</time>
      </trkpt>
      <trkpt lat="44.62695" lon="0.8408">
        <ele>152.51</ele>
        <time>2014-03-16T08:41:50Z</time>
      </trkpt>
      <trkpt lat="44.62699" lon="0.84054">
        <ele>152.51</ele>
        <time>2014-03-16T08:41:54Z</time>
      </trkpt>
      <trkpt lat="44.62702" lon="0.84008">
        <ele>151.54</ele>
        <time>2014-03-16T08:42:02Z</time>
      </trkpt>
      <trkpt lat="44.62705" lon="0.84006">
        <ele>151.06</ele>
        <time>2014-03-16T08:42:14Z</time>
      </trkpt>
      <trkpt lat="44.62704" lon="0.84005">
        <ele>152.03</ele>
        <time>2014-03-16T08:42:31Z</time>
      </trkpt>
      <trkpt lat="44.62704" lon="0.84005">
        <ele>152.51</ele>
        <time>2014-03-16T08:42:47Z</time>
      </trkpt>
      <trkpt lat="44.62704" lon="0.84005">
        <ele>152.99</ele>
        <time>2014-03-16T08:43:05Z</time>
      </trkpt>
      <trkpt lat="44.62723" lon="0.84003">
        <ele>151.54</ele>
        <time>2014-03-16T08:43:15Z</time>
      </trkpt>
      <trkpt lat="44.62794" lon="0.84019">
        <ele>146.26</ele>
        <time>2014-03-16T08:43:25Z</time>
      </trkpt>
      <trkpt lat="44.62915" lon="0.84053">
        <ele>143.37</ele>
        <time>2014-03-16T08:43:38Z</time>
      </trkpt>
      <trkpt lat="44.62988" lon="0.84068">
        <ele>149.62</ele>
        <time>2014-03-16T08:43:48Z</time>
      </trkpt>
      <trkpt lat="44.62995" lon="0.84054">
        <ele>150.1</ele>
        <time>2014-03-16T08:43:52Z</time>
      </trkpt>
      <trkpt lat="44.63003" lon="0.83997">
        <ele>150.58</ele>
        <time>2014-03-16T08:44:06Z</time>
      </trkpt>
      <trkpt lat="44.63009" lon="0.83946">
        <ele>150.1</ele>
        <time>2014-03-16T08:44:16Z</time>
      </trkpt>
      <trkpt lat="44.63013" lon="0.83914">
        <ele>151.06</ele>
        <time>2014-03-16T08:44:22Z</time>
      </trkpt>
      <trkpt lat="44.63012" lon="0.83882">
        <ele>150.58</ele>
        <time>2014-03-16T08:44:27Z</time>
      </trkpt>
      <trkpt lat="44.63023" lon="0.83846">
        <ele>147.22</ele>
        <time>2014-03-16T08:44:31Z</time>
      </trkpt>
      <trkpt lat="44.63035" lon="0.83827">
        <ele>145.78</ele>
        <time>2014-03-16T08:44:33Z</time>
      </trkpt>
      <trkpt lat="44.63048" lon="0.83783">
        <ele>144.34</ele>
        <time>2014-03-16T08:44:37Z</time>
      </trkpt>
      <trkpt lat="44.63057" lon="0.83656">
        <ele>150.1</ele>
        <time>2014-03-16T08:44:52Z</time>
      </trkpt>
      <trkpt lat="44.63064" lon="0.83545">
        <ele>153.47</ele>
        <time>2014-03-16T08:45:09Z</time>
      </trkpt>
      <trkpt lat="44.63089" lon="0.83433">
        <ele>152.51</ele>
        <time>2014-03-16T08:45:24Z</time>
      </trkpt>
      <trkpt lat="44.63094" lon="0.8342">
        <ele>152.99</ele>
        <time>2014-03-16T08:45:26Z</time>
      </trkpt>
      <trkpt lat="44.63115" lon="0.83349">
        <ele>150.1</ele>
        <time>2014-03-16T08:45:37Z</time>
      </trkpt>
      <trkpt lat="44.63131" lon="0.83308">
        <ele>149.62</ele>
        <time>2014-03-16T08:45:45Z</time>
      </trkpt>
      <trkpt lat="44.6317" lon="0.8325">
        <ele>151.06</ele>
        <time>2014-03-16T08:46:00Z</time>
      </trkpt>
      <trkpt lat="44.6321" lon="0.83218">
        <ele>154.91</ele>
        <time>2014-03-16T08:46:15Z</time>
      </trkpt>
      <trkpt lat="44.6324" lon="0.83198">
        <ele>157.31</ele>
        <time>2014-03-16T08:46:29Z</time>
      </trkpt>
      <trkpt lat="44.63248" lon="0.83195">
        <ele>157.31</ele>
        <time>2014-03-16T08:46:37Z</time>
      </trkpt>
      <trkpt lat="44.6325" lon="0.83191">
        <ele>158.27</ele>
        <time>2014-03-16T08:46:51Z</time>
      </trkpt>
      <trkpt lat="44.6325" lon="0.83192">
        <ele>159.24</ele>
        <time>2014-03-16T08:47:00Z</time>
      </trkpt>
      <trkpt lat="44.63261" lon="0.83187">
        <ele>159.72</ele>
        <time>2014-03-16T08:47:08Z</time>
      </trkpt>
      <trkpt lat="44.6328" lon="0.8318">
        <ele>160.68</ele>
        <time>2014-03-16T08:47:22Z</time>
      </trkpt>
      <trkpt lat="44.63298" lon="0.83154">
        <ele>162.12</ele>
        <time>2014-03-16T08:47:38Z</time>
      </trkpt>
      <trkpt lat="44.63304" lon="0.83143">
        <ele>163.56</ele>
        <time>2014-03-16T08:47:50Z</time>
      </trkpt>
      <trkpt lat="44.63307" lon="0.83143">
        <ele>163.08</ele>
        <time>2014-03-16T08:48:09Z</time>
      </trkpt>
      <trkpt lat="44.63314" lon="0.83134">
        <ele>165</ele>
        <time>2014-03-16T08:48:22Z</time>
      </trkpt>
      <trkpt lat="44.63317" lon="0.83132">
        <ele>165.48</ele>
        <time>2014-03-16T08:48:27Z</time>
      </trkpt>
      <trkpt lat="44.63323" lon="0.83127">
        <ele>165.96</ele>
        <time>2014-03-16T08:48:31Z</time>
      </trkpt>
      <trkpt lat="44.63346" lon="0.83095">
        <ele>166.93</ele>
        <time>2014-03-16T08:48:45Z</time>
      </trkpt>
      <trkpt lat="44.63339" lon="0.83062">
        <ele>167.41</ele>
        <time>2014-03-16T08:48:56Z</time>
      </trkpt>
      <trkpt lat="44.63328" lon="0.83025">
        <ele>168.85</ele>
        <time>2014-03-16T08:49:09Z</time>
      </trkpt>
      <trkpt lat="44.63327" lon="0.83021">
        <ele>168.85</ele>
        <time>2014-03-16T08:49:10Z</time>
      </trkpt>
      <trkpt lat="44.63358" lon="0.82991">
        <ele>171.73</ele>
        <time>2014-03-16T08:49:23Z</time>
      </trkpt>
      <trkpt lat="44.63385" lon="0.82968">
        <ele>172.21</ele>
        <time>2014-03-16T08:49:37Z</time>
      </trkpt>
      <trkpt lat="44.63386" lon="0.82968">
        <ele>172.21</ele>
        <time>2014-03-16T08:49:48Z</time>
      </trkpt>
      <trkpt lat="44.63386" lon="0.82967">
        <ele>172.21</ele>
        <time>2014-03-16T08:50:08Z</time>
      </trkpt>
      <trkpt lat="44.63386" lon="0.82966">
        <ele>171.73</ele>
        <time>2014-03-16T08:50:23Z</time>
      </trkpt>
      <trkpt lat="44.63387" lon="0.82949">
        <ele>171.73</ele>
        <time>2014-03-16T08:50:30Z</time>
      </trkpt>
      <trkpt lat="44.63402" lon="0.82934">
        <ele>171.25</ele>
        <time>2014-03-16T08:50:40Z</time>
      </trkpt>
      <trkpt lat="44.63421" lon="0.82919">
        <ele>171.25</ele>
        <time>2014-03-16T08:50:46Z</time>
      </trkpt>
      <trkpt lat="44.63474" lon="0.82881">
        <ele>169.81</ele>
        <time>2014-03-16T08:51:01Z</time>
      </trkpt>
      <trkpt lat="44.63507" lon="0.82857">
        <ele>169.33</ele>
        <time>2014-03-16T08:51:11Z</time>
      </trkpt>
      <trkpt lat="44.63531" lon="0.82838">
        <ele>167.89</ele>
        <time>2014-03-16T08:51:17Z</time>
      </trkpt>
      <trkpt lat="44.63548" lon="0.82825">
        <ele>166.93</ele>
        <time>2014-03-16T08:51:21Z</time>
      </trkpt>
      <trkpt lat="44.63561" lon="0.82813">
        <ele>165.48</ele>
        <time>2014-03-16T08:51:24Z</time>
      </trkpt>
      <trkpt lat="44.63572" lon="0.82801">
        <ele>164.04</ele>
        <time>2014-03-16T08:51:27Z</time>
      </trkpt>
      <trkpt lat="44.63592" lon="0.82755">
        <ele>160.2</ele>
        <time>2014-03-16T08:51:38Z</time>
      </trkpt>
      <trkpt lat="44.636" lon="0.82717">
        <ele>158.75</ele>
        <time>2014-03-16T08:51:45Z</time>
      </trkpt>
      <trkpt lat="44.63619" lon="0.82678">
        <ele>160.2</ele>
        <time>2014-03-16T08:51:55Z</time>
      </trkpt>
      <trkpt lat="44.63634" lon="0.82656">
        <ele>162.6</ele>
        <time>2014-03-16T08:52:03Z</time>
      </trkpt>
      <trkpt lat="44.63647" lon="0.82651">
        <ele>163.56</ele>
        <time>2014-03-16T08:52:07Z</time>
      </trkpt>
      <trkpt lat="44.63702" lon="0.8264">
        <ele>165</ele>
        <time>2014-03-16T08:52:22Z</time>
      </trkpt>
      <trkpt lat="44.63788" lon="0.82637">
        <ele>160.68</ele>
        <time>2014-03-16T08:52:34Z</time>
      </trkpt>
      <trkpt lat="44.63857" lon="0.8263">
        <ele>163.56</ele>
        <time>2014-03-16T08:52:45Z</time>
      </trkpt>
      <trkpt lat="44.63877" lon="0.82626">
        <ele>165.96</ele>
        <time>2014-03-16T08:52:49Z</time>
      </trkpt>
      <trkpt lat="44.63933" lon="0.82612">
        <ele>169.33</ele>
        <time>2014-03-16T08:53:03Z</time>
      </trkpt>
      <trkpt lat="44.63934" lon="0.82609">
        <ele>169.33</ele>
        <time>2014-03-16T08:53:04Z</time>
      </trkpt>
      <trkpt lat="44.6392" lon="0.82539">
        <ele>168.85</ele>
        <time>2014-03-16T08:53:19Z</time>
      </trkpt>
      <trkpt lat="44.63903" lon="0.82436">
        <ele>165</ele>
        <time>2014-03-16T08:53:36Z</time>
      </trkpt>
      <trkpt lat="44.63893" lon="0.82334">
        <ele>162.12</ele>
        <time>2014-03-16T08:53:50Z</time>
      </trkpt>
      <trkpt lat="44.63903" lon="0.82284">
        <ele>162.6</ele>
        <time>2014-03-16T08:54:01Z</time>
      </trkpt>
      <trkpt lat="44.63912" lon="0.82229">
        <ele>164.52</ele>
        <time>2014-03-16T08:54:12Z</time>
      </trkpt>
      <trkpt lat="44.63923" lon="0.8215">
        <ele>165</ele>
        <time>2014-03-16T08:54:27Z</time>
      </trkpt>
      <trkpt lat="44.63934" lon="0.82096">
        <ele>163.08</ele>
        <time>2014-03-16T08:54:36Z</time>
      </trkpt>
      <trkpt lat="44.63964" lon="0.82005">
        <ele>159.24</ele>
        <time>2014-03-16T08:54:48Z</time>
      </trkpt>
      <trkpt lat="44.64006" lon="0.81913">
        <ele>158.75</ele>
        <time>2014-03-16T08:55:04Z</time>
      </trkpt>
      <trkpt lat="44.64033" lon="0.81869">
        <ele>159.24</ele>
        <time>2014-03-16T08:55:13Z</time>
      </trkpt>
      <trkpt lat="44.6408" lon="0.81768">
        <ele>158.75</ele>
        <time>2014-03-16T08:55:32Z</time>
      </trkpt>
      <trkpt lat="44.64113" lon="0.81706">
        <ele>159.72</ele>
        <time>2014-03-16T08:55:46Z</time>
      </trkpt>
      <trkpt lat="44.64142" lon="0.81657">
        <ele>164.04</ele>
        <time>2014-03-16T08:55:59Z</time>
      </trkpt>
      <trkpt lat="44.64172" lon="0.8162">
        <ele>165.96</ele>
        <time>2014-03-16T08:56:12Z</time>
      </trkpt>
      <trkpt lat="44.64209" lon="0.81568">
        <ele>163.08</ele>
        <time>2014-03-16T08:56:24Z</time>
      </trkpt>
      <trkpt lat="44.64246" lon="0.81508">
        <ele>160.68</ele>
        <time>2014-03-16T08:56:37Z</time>
      </trkpt>
      <trkpt lat="44.64255" lon="0.81495">
        <ele>160.2</ele>
        <time>2014-03-16T08:56:40Z</time>
      </trkpt>
      <trkpt lat="44.64282" lon="0.81448">
        <ele>158.27</ele>
        <time>2014-03-16T08:56:49Z</time>
      </trkpt>
      <trkpt lat="44.64313" lon="0.81392">
        <ele>157.31</ele>
        <time>2014-03-16T08:57:03Z</time>
      </trkpt>
      <trkpt lat="44.64338" lon="0.81341">
        <ele>159.72</ele>
        <time>2014-03-16T08:57:15Z</time>
      </trkpt>
      <trkpt lat="44.64372" lon="0.81268">
        <ele>158.75</ele>
        <time>2014-03-16T08:57:30Z</time>
      </trkpt>
      <trkpt lat="44.64378" lon="0.81261">
        <ele>158.75</ele>
        <time>2014-03-16T08:57:40Z</time>
      </trkpt>
      <trkpt lat="44.64379" lon="0.8126">
        <ele>159.72</ele>
        <time>2014-03-16T08:57:53Z</time>
      </trkpt>
      <trkpt lat="44.64399" lon="0.8122">
        <ele>162.6</ele>
        <time>2014-03-16T08:58:07Z</time>
      </trkpt>
      <trkpt lat="44.64415" lon="0.81161">
        <ele>164.52</ele>
        <time>2014-03-16T08:58:20Z</time>
      </trkpt>
      <trkpt lat="44.64431" lon="0.81098">
        <ele>165</ele>
        <time>2014-03-16T08:58:33Z</time>
      </trkpt>
      <trkpt lat="44.64446" lon="0.81035">
        <ele>166.45</ele>
        <time>2014-03-16T08:58:47Z</time>
      </trkpt>
      <trkpt lat="44.64456" lon="0.80984">
        <ele>168.85</ele>
        <time>2014-03-16T08:58:59Z</time>
      </trkpt>
      <trkpt lat="44.64468" lon="0.80926">
        <ele>168.85</ele>
        <time>2014-03-16T08:59:14Z</time>
      </trkpt>
      <trkpt lat="44.64474" lon="0.80897">
        <ele>167.41</ele>
        <time>2014-03-16T08:59:21Z</time>
      </trkpt>
      <trkpt lat="44.64491" lon="0.80848">
        <ele>164.04</ele>
        <time>2014-03-16T08:59:31Z</time>
      </trkpt>
      <trkpt lat="44.64502" lon="0.80842">
        <ele>163.08</ele>
        <time>2014-03-16T08:59:34Z</time>
      </trkpt>
      <trkpt lat="44.64523" lon="0.80841">
        <ele>163.08</ele>
        <time>2014-03-16T08:59:39Z</time>
      </trkpt>
      <trkpt lat="44.64579" lon="0.80844">
        <ele>165.48</ele>
        <time>2014-03-16T08:59:52Z</time>
      </trkpt>
      <trkpt lat="44.64588" lon="0.80843">
        <ele>165.96</ele>
        <time>2014-03-16T08:59:54Z</time>
      </trkpt>
      <trkpt lat="44.64614" lon="0.80833">
        <ele>166.45</ele>
        <time>2014-03-16T09:00:00Z</time>
      </trkpt>
      <trkpt lat="44.64643" lon="0.8083">
        <ele>165.96</ele>
        <time>2014-03-16T09:00:07Z</time>
      </trkpt>
      <trkpt lat="44.6468" lon="0.80826">
        <ele>162.12</ele>
        <time>2014-03-16T09:00:18Z</time>
      </trkpt>
      <trkpt lat="44.64704" lon="0.80839">
        <ele>159.72</ele>
        <time>2014-03-16T09:00:27Z</time>
      </trkpt>
      <trkpt lat="44.64718" lon="0.80839">
        <ele>158.27</ele>
        <time>2014-03-16T09:00:30Z</time>
      </trkpt>
      <trkpt lat="44.64773" lon="0.8084">
        <ele>154.43</ele>
        <time>2014-03-16T09:00:41Z</time>
      </trkpt>
      <trkpt lat="44.64781" lon="0.8084">
        <ele>153.95</ele>
        <time>2014-03-16T09:00:43Z</time>
      </trkpt>
      <trkpt lat="44.64806" lon="0.80831">
        <ele>149.62</ele>
        <time>2014-03-16T09:00:51Z</time>
      </trkpt>
      <trkpt lat="44.64807" lon="0.80813">
        <ele>149.14</ele>
        <time>2014-03-16T09:00:54Z</time>
      </trkpt>
      <trkpt lat="44.64802" lon="0.80752">
        <ele>144.82</ele>
        <time>2014-03-16T09:01:04Z</time>
      </trkpt>
      <trkpt lat="44.648" lon="0.80743">
        <ele>143.85</ele>
        <time>2014-03-16T09:01:06Z</time>
      </trkpt>
      <trkpt lat="44.64812" lon="0.80719">
        <ele>140.49</ele>
        <time>2014-03-16T09:01:14Z</time>
      </trkpt>
      <trkpt lat="44.64848" lon="0.80719">
        <ele>139.05</ele>
        <time>2014-03-16T09:01:23Z</time>
      </trkpt>
      <trkpt lat="44.64878" lon="0.80715">
        <ele>137.61</ele>
        <time>2014-03-16T09:01:29Z</time>
      </trkpt>
      <trkpt lat="44.649" lon="0.80707">
        <ele>136.64</ele>
        <time>2014-03-16T09:01:34Z</time>
      </trkpt>
      <trkpt lat="44.64923" lon="0.80698">
        <ele>133.76</ele>
        <time>2014-03-16T09:01:41Z</time>
      </trkpt>
      <trkpt lat="44.64934" lon="0.80696">
        <ele>130.88</ele>
        <time>2014-03-16T09:01:45Z</time>
      </trkpt>
      <trkpt lat="44.64945" lon="0.80674">
        <ele>124.15</ele>
        <time>2014-03-16T09:01:54Z</time>
      </trkpt>
      <trkpt lat="44.64947" lon="0.80669">
        <ele>122.71</ele>
        <time>2014-03-16T09:01:56Z</time>
      </trkpt>
      <trkpt lat="44.6497" lon="0.80648">
        <ele>116.94</ele>
        <time>2014-03-16T09:02:04Z</time>
      </trkpt>
      <trkpt lat="44.65011" lon="0.80636">
        <ele>110.21</ele>
        <time>2014-03-16T09:02:13Z</time>
      </trkpt>
      <trkpt lat="44.65021" lon="0.80635">
        <ele>107.32</ele>
        <time>2014-03-16T09:02:21Z</time>
      </trkpt>
      <trkpt lat="44.65025" lon="0.80634">
        <ele>107.81</ele>
        <time>2014-03-16T09:02:41Z</time>
      </trkpt>
      <trkpt lat="44.65025" lon="0.80635">
        <ele>107.81</ele>
        <time>2014-03-16T09:02:58Z</time>
      </trkpt>
      <trkpt lat="44.65028" lon="0.80634">
        <ele>108.29</ele>
        <time>2014-03-16T09:03:05Z</time>
      </trkpt>
      <trkpt lat="44.65033" lon="0.80653">
        <ele>108.29</ele>
        <time>2014-03-16T09:03:12Z</time>
      </trkpt>
      <trkpt lat="44.65033" lon="0.80673">
        <ele>108.29</ele>
        <time>2014-03-16T09:03:16Z</time>
      </trkpt>
      <trkpt lat="44.65032" lon="0.80787">
        <ele>109.73</ele>
        <time>2014-03-16T09:03:33Z</time>
      </trkpt>
      <trkpt lat="44.65016" lon="0.80867">
        <ele>109.25</ele>
        <time>2014-03-16T09:03:45Z</time>
      </trkpt>
      <trkpt lat="44.6503" lon="0.80893">
        <ele>107.81</ele>
        <time>2014-03-16T09:03:51Z</time>
      </trkpt>
      <trkpt lat="44.65136" lon="0.80912">
        <ele>103.96</ele>
        <time>2014-03-16T09:04:06Z</time>
      </trkpt>
      <trkpt lat="44.6525" lon="0.80937">
        <ele>104.44</ele>
        <time>2014-03-16T09:04:24Z</time>
      </trkpt>
      <trkpt lat="44.65343" lon="0.80955">
        <ele>104.44</ele>
        <time>2014-03-16T09:04:39Z</time>
      </trkpt>
      <trkpt lat="44.65353" lon="0.80956">
        <ele>104.92</ele>
        <time>2014-03-16T09:04:41Z</time>
      </trkpt>
      <trkpt lat="44.65372" lon="0.80936">
        <ele>105.88</ele>
        <time>2014-03-16T09:04:46Z</time>
      </trkpt>
      <trkpt lat="44.65377" lon="0.8091">
        <ele>105.88</ele>
        <time>2014-03-16T09:04:50Z</time>
      </trkpt>
      <trkpt lat="44.65415" lon="0.80792">
        <ele>105.4</ele>
        <time>2014-03-16T09:05:07Z</time>
      </trkpt>
      <trkpt lat="44.65457" lon="0.80685">
        <ele>107.81</ele>
        <time>2014-03-16T09:05:23Z</time>
      </trkpt>
      <trkpt lat="44.6546" lon="0.8067">
        <ele>108.29</ele>
        <time>2014-03-16T09:05:25Z</time>
      </trkpt>
      <trkpt lat="44.65473" lon="0.80564">
        <ele>111.17</ele>
        <time>2014-03-16T09:05:41Z</time>
      </trkpt>
      <trkpt lat="44.65475" lon="0.80551">
        <ele>111.65</ele>
        <time>2014-03-16T09:05:44Z</time>
      </trkpt>
      <trkpt lat="44.65492" lon="0.80551">
        <ele>112.13</ele>
        <time>2014-03-16T09:05:49Z</time>
      </trkpt>
      <trkpt lat="44.65554" lon="0.80578">
        <ele>116.46</ele>
        <time>2014-03-16T09:06:06Z</time>
      </trkpt>
      <trkpt lat="44.65597" lon="0.80586">
        <ele>117.42</ele>
        <time>2014-03-16T09:06:19Z</time>
      </trkpt>
      <trkpt lat="44.65642" lon="0.80546">
        <ele>118.38</ele>
        <time>2014-03-16T09:06:33Z</time>
      </trkpt>
      <trkpt lat="44.65707" lon="0.80492">
        <ele>118.86</ele>
        <time>2014-03-16T09:06:51Z</time>
      </trkpt>
      <trkpt lat="44.65754" lon="0.80479">
        <ele>120.78</ele>
        <time>2014-03-16T09:07:03Z</time>
      </trkpt>
      <trkpt lat="44.65819" lon="0.80456">
        <ele>125.11</ele>
        <time>2014-03-16T09:07:20Z</time>
      </trkpt>
      <trkpt lat="44.65869" lon="0.80439">
        <ele>130.88</ele>
        <time>2014-03-16T09:07:35Z</time>
      </trkpt>
      <trkpt lat="44.65908" lon="0.80407">
        <ele>134.24</ele>
        <time>2014-03-16T09:07:49Z</time>
      </trkpt>
      <trkpt lat="44.65937" lon="0.80357">
        <ele>137.13</ele>
        <time>2014-03-16T09:08:04Z</time>
      </trkpt>
      <trkpt lat="44.65965" lon="0.80343">
        <ele>140.01</ele>
        <time>2014-03-16T09:08:16Z</time>
      </trkpt>
      <trkpt lat="44.66002" lon="0.80343">
        <ele>143.85</ele>
        <time>2014-03-16T09:08:31Z</time>
      </trkpt>
      <trkpt lat="44.66044" lon="0.80336">
        <ele>146.74</ele>
        <time>2014-03-16T09:08:47Z</time>
      </trkpt>
      <trkpt lat="44.66088" lon="0.80323">
        <ele>148.18</ele>
        <time>2014-03-16T09:09:04Z</time>
      </trkpt>
      <trkpt lat="44.66102" lon="0.80314">
        <ele>148.66</ele>
        <time>2014-03-16T09:09:12Z</time>
      </trkpt>
      <trkpt lat="44.66101" lon="0.80311">
        <ele>148.66</ele>
        <time>2014-03-16T09:09:25Z</time>
      </trkpt>
      <trkpt lat="44.66101" lon="0.80309">
        <ele>149.14</ele>
        <time>2014-03-16T09:09:49Z</time>
      </trkpt>
      <trkpt lat="44.661" lon="0.80309">
        <ele>149.14</ele>
        <time>2014-03-16T09:10:10Z</time>
      </trkpt>
      <trkpt lat="44.661" lon="0.80311">
        <ele>149.14</ele>
        <time>2014-03-16T09:10:16Z</time>
      </trkpt>
      <trkpt lat="44.66129" lon="0.80338">
        <ele>148.66</ele>
        <time>2014-03-16T09:10:29Z</time>
      </trkpt>
      <trkpt lat="44.66131" lon="0.80339">
        <ele>148.66</ele>
        <time>2014-03-16T09:10:30Z</time>
      </trkpt>
      <trkpt lat="44.66142" lon="0.80322">
        <ele>149.14</ele>
        <time>2014-03-16T09:10:36Z</time>
      </trkpt>
      <trkpt lat="44.66141" lon="0.80273">
        <ele>154.43</ele>
        <time>2014-03-16T09:10:50Z</time>
      </trkpt>
      <trkpt lat="44.66141" lon="0.80247">
        <ele>157.31</ele>
        <time>2014-03-16T09:10:59Z</time>
      </trkpt>
      <trkpt lat="44.66171" lon="0.80237">
        <ele>163.56</ele>
        <time>2014-03-16T09:11:13Z</time>
      </trkpt>
      <trkpt lat="44.66197" lon="0.80195">
        <ele>166.45</ele>
        <time>2014-03-16T09:11:29Z</time>
      </trkpt>
      <trkpt lat="44.66223" lon="0.80138">
        <ele>169.33</ele>
        <time>2014-03-16T09:11:48Z</time>
      </trkpt>
      <trkpt lat="44.66218" lon="0.80115">
        <ele>169.33</ele>
        <time>2014-03-16T09:11:54Z</time>
      </trkpt>
      <trkpt lat="44.66259" lon="0.80058">
        <ele>168.85</ele>
        <time>2014-03-16T09:12:10Z</time>
      </trkpt>
      <trkpt lat="44.66296" lon="0.8001">
        <ele>167.41</ele>
        <time>2014-03-16T09:12:21Z</time>
      </trkpt>
      <trkpt lat="44.6632" lon="0.80008">
        <ele>166.45</ele>
        <time>2014-03-16T09:12:26Z</time>
      </trkpt>
      <trkpt lat="44.66342" lon="0.80029">
        <ele>164.04</ele>
        <time>2014-03-16T09:12:30Z</time>
      </trkpt>
      <trkpt lat="44.66379" lon="0.80023">
        <ele>159.72</ele>
        <time>2014-03-16T09:12:36Z</time>
      </trkpt>
      <trkpt lat="44.66455" lon="0.79949">
        <ele>151.54</ele>
        <time>2014-03-16T09:12:46Z</time>
      </trkpt>
      <trkpt lat="44.66554" lon="0.7991">
        <ele>141.93</ele>
        <time>2014-03-16T09:12:55Z</time>
      </trkpt>
      <trkpt lat="44.66611" lon="0.79883">
        <ele>137.61</ele>
        <time>2014-03-16T09:13:01Z</time>
      </trkpt>
      <trkpt lat="44.66633" lon="0.79913">
        <ele>134.24</ele>
        <time>2014-03-16T09:13:07Z</time>
      </trkpt>
      <trkpt lat="44.66681" lon="0.80003">
        <ele>124.15</ele>
        <time>2014-03-16T09:13:16Z</time>
      </trkpt>
      <trkpt lat="44.66699" lon="0.80012">
        <ele>122.22</ele>
        <time>2014-03-16T09:13:20Z</time>
      </trkpt>
      <trkpt lat="44.6675" lon="0.79992">
        <ele>120.78</ele>
        <time>2014-03-16T09:13:29Z</time>
      </trkpt>
      <trkpt lat="44.66776" lon="0.79976">
        <ele>119.82</ele>
        <time>2014-03-16T09:13:33Z</time>
      </trkpt>
      <trkpt lat="44.66808" lon="0.79977">
        <ele>117.9</ele>
        <time>2014-03-16T09:13:40Z</time>
      </trkpt>
      <trkpt lat="44.66821" lon="0.79995">
        <ele>119.82</ele>
        <time>2014-03-16T09:13:51Z</time>
      </trkpt>
      <trkpt lat="44.66821" lon="0.79994">
        <ele>119.34</ele>
        <time>2014-03-16T09:14:12Z</time>
      </trkpt>
      <trkpt lat="44.66826" lon="0.7999">
        <ele>119.82</ele>
        <time>2014-03-16T09:14:19Z</time>
      </trkpt>
      <trkpt lat="44.6683" lon="0.79985">
        <ele>120.78</ele>
        <time>2014-03-16T09:14:32Z</time>
      </trkpt>
      <trkpt lat="44.6683" lon="0.79984">
        <ele>121.26</ele>
        <time>2014-03-16T09:14:38Z</time>
      </trkpt>
      <trkpt lat="44.66834" lon="0.79978">
        <ele>121.26</ele>
        <time>2014-03-16T09:14:42Z</time>
      </trkpt>
      <trkpt lat="44.66855" lon="0.7996">
        <ele>119.34</ele>
        <time>2014-03-16T09:14:56Z</time>
      </trkpt>
      <trkpt lat="44.66903" lon="0.7991">
        <ele>119.34</ele>
        <time>2014-03-16T09:15:12Z</time>
      </trkpt>
      <trkpt lat="44.66964" lon="0.79846">
        <ele>118.86</ele>
        <time>2014-03-16T09:15:31Z</time>
      </trkpt>
      <trkpt lat="44.6702" lon="0.79788">
        <ele>118.86</ele>
        <time>2014-03-16T09:15:48Z</time>
      </trkpt>
      <trkpt lat="44.67081" lon="0.79725">
        <ele>118.86</ele>
        <time>2014-03-16T09:16:06Z</time>
      </trkpt>
      <trkpt lat="44.67142" lon="0.79664">
        <ele>118.86</ele>
        <time>2014-03-16T09:16:23Z</time>
      </trkpt>
      <trkpt lat="44.67179" lon="0.79627">
        <ele>118.38</ele>
        <time>2014-03-16T09:16:38Z</time>
      </trkpt>
      <trkpt lat="44.67187" lon="0.7962">
        <ele>118.86</ele>
        <time>2014-03-16T09:16:50Z</time>
      </trkpt>
      <trkpt lat="44.67192" lon="0.79615">
        <ele>118.86</ele>
        <time>2014-03-16T09:17:02Z</time>
      </trkpt>
      <trkpt lat="44.67196" lon="0.79607">
        <ele>120.78</ele>
        <time>2014-03-16T09:17:18Z</time>
      </trkpt>
      <trkpt lat="44.67196" lon="0.79607">
        <ele>118.86</ele>
        <time>2014-03-16T09:17:35Z</time>
      </trkpt>
      <trkpt lat="44.67196" lon="0.79608">
        <ele>117.42</ele>
        <time>2014-03-16T09:17:58Z</time>
      </trkpt>
      <trkpt lat="44.67196" lon="0.79607">
        <ele>120.3</ele>
        <time>2014-03-16T09:18:16Z</time>
      </trkpt>
      <trkpt lat="44.67209" lon="0.79618">
        <ele>119.34</ele>
        <time>2014-03-16T09:18:23Z</time>
      </trkpt>
      <trkpt lat="44.67246" lon="0.79666">
        <ele>118.38</ele>
        <time>2014-03-16T09:18:41Z</time>
      </trkpt>
      <trkpt lat="44.67257" lon="0.797">
        <ele>117.9</ele>
        <time>2014-03-16T09:18:53Z</time>
      </trkpt>
      <trkpt lat="44.67261" lon="0.79714">
        <ele>117.42</ele>
        <time>2014-03-16T09:19:00Z</time>
      </trkpt>
      <trkpt lat="44.67264" lon="0.79726">
        <ele>116.94</ele>
        <time>2014-03-16T09:19:04Z</time>
      </trkpt>
      <trkpt lat="44.67275" lon="0.79758">
        <ele>116.94</ele>
        <time>2014-03-16T09:19:13Z</time>
      </trkpt>
      <trkpt lat="44.67277" lon="0.79763">
        <ele>116.94</ele>
        <time>2014-03-16T09:19:14Z</time>
      </trkpt>
      <trkpt lat="44.67285" lon="0.79784">
        <ele>115.98</ele>
        <time>2014-03-16T09:19:18Z</time>
      </trkpt>
      <trkpt lat="44.67314" lon="0.79833">
        <ele>116.46</ele>
        <time>2014-03-16T09:19:30Z</time>
      </trkpt>
      <trkpt lat="44.67321" lon="0.79838">
        <ele>116.46</ele>
        <time>2014-03-16T09:19:32Z</time>
      </trkpt>
      <trkpt lat="44.67337" lon="0.7984">
        <ele>116.94</ele>
        <time>2014-03-16T09:19:36Z</time>
      </trkpt>
      <trkpt lat="44.67372" lon="0.79844">
        <ele>119.34</ele>
        <time>2014-03-16T09:19:47Z</time>
      </trkpt>
      <trkpt lat="44.6738" lon="0.79859">
        <ele>118.86</ele>
        <time>2014-03-16T09:19:50Z</time>
      </trkpt>
      <trkpt lat="44.67382" lon="0.79905">
        <ele>118.38</ele>
        <time>2014-03-16T09:20:00Z</time>
      </trkpt>
      <trkpt lat="44.67346" lon="0.7994">
        <ele>119.34</ele>
        <time>2014-03-16T09:20:12Z</time>
      </trkpt>
      <trkpt lat="44.6734" lon="0.79983">
        <ele>117.9</ele>
        <time>2014-03-16T09:20:23Z</time>
      </trkpt>
      <trkpt lat="44.67342" lon="0.79993">
        <ele>117.9</ele>
        <time>2014-03-16T09:20:28Z</time>
      </trkpt>
      <trkpt lat="44.6735" lon="0.8001">
        <ele>116.46</ele>
        <time>2014-03-16T09:20:40Z</time>
      </trkpt>
      <trkpt lat="44.67353" lon="0.80013">
        <ele>115.5</ele>
        <time>2014-03-16T09:20:46Z</time>
      </trkpt>
      <trkpt lat="44.67359" lon="0.80021">
        <ele>117.42</ele>
        <time>2014-03-16T09:20:55Z</time>
      </trkpt>
      <trkpt lat="44.67366" lon="0.80037">
        <ele>117.9</ele>
        <time>2014-03-16T09:21:04Z</time>
      </trkpt>
      <trkpt lat="44.67369" lon="0.80043">
        <ele>117.42</ele>
        <time>2014-03-16T09:21:07Z</time>
      </trkpt>
      <trkpt lat="44.67379" lon="0.80071">
        <ele>116.94</ele>
        <time>2014-03-16T09:21:15Z</time>
      </trkpt>
      <trkpt lat="44.67407" lon="0.80096">
        <ele>118.38</ele>
        <time>2014-03-16T09:21:26Z</time>
      </trkpt>
      <trkpt lat="44.67412" lon="0.80101">
        <ele>118.38</ele>
        <time>2014-03-16T09:21:35Z</time>
      </trkpt>
      <trkpt lat="44.67441" lon="0.8012">
        <ele>117.9</ele>
        <time>2014-03-16T09:21:46Z</time>
      </trkpt>
      <trkpt lat="44.6746" lon="0.80138">
        <ele>117.9</ele>
        <time>2014-03-16T09:21:52Z</time>
      </trkpt>
      <trkpt lat="44.67467" lon="0.80165">
        <ele>117.42</ele>
        <time>2014-03-16T09:21:57Z</time>
      </trkpt>
      <trkpt lat="44.67477" lon="0.80214">
        <ele>119.34</ele>
        <time>2014-03-16T09:22:10Z</time>
      </trkpt>
      <trkpt lat="44.67499" lon="0.80251">
        <ele>122.22</ele>
        <time>2014-03-16T09:22:24Z</time>
      </trkpt>
      <trkpt lat="44.67521" lon="0.80283">
        <ele>126.55</ele>
        <time>2014-03-16T09:22:38Z</time>
      </trkpt>
      <trkpt lat="44.67546" lon="0.80326">
        <ele>129.92</ele>
        <time>2014-03-16T09:22:55Z</time>
      </trkpt>
      <trkpt lat="44.67552" lon="0.80337">
        <ele>130.4</ele>
        <time>2014-03-16T09:22:59Z</time>
      </trkpt>
      <trkpt lat="44.67553" lon="0.804">
        <ele>133.28</ele>
        <time>2014-03-16T09:23:18Z</time>
      </trkpt>
      <trkpt lat="44.67533" lon="0.80426">
        <ele>135.2</ele>
        <time>2014-03-16T09:23:31Z</time>
      </trkpt>
      <trkpt lat="44.67507" lon="0.8044">
        <ele>135.68</ele>
        <time>2014-03-16T09:23:43Z</time>
      </trkpt>
      <trkpt lat="44.67508" lon="0.8044">
        <ele>134.72</ele>
        <time>2014-03-16T09:23:53Z</time>
      </trkpt>
      <trkpt lat="44.6751" lon="0.80442">
        <ele>135.68</ele>
        <time>2014-03-16T09:24:27Z</time>
      </trkpt>
      <trkpt lat="44.67507" lon="0.80437">
        <ele>137.13</ele>
        <time>2014-03-16T09:24:38Z</time>
      </trkpt>
      <trkpt lat="44.6749" lon="0.80432">
        <ele>136.16</ele>
        <time>2014-03-16T09:24:46Z</time>
      </trkpt>
      <trkpt lat="44.67432" lon="0.80444">
        <ele>133.28</ele>
        <time>2014-03-16T09:25:02Z</time>
      </trkpt>
      <trkpt lat="44.67428" lon="0.80445">
        <ele>133.28</ele>
        <time>2014-03-16T09:25:03Z</time>
      </trkpt>
      <trkpt lat="44.67386" lon="0.8046">
        <ele>129.43</ele>
        <time>2014-03-16T09:25:13Z</time>
      </trkpt>
      <trkpt lat="44.67386" lon="0.80459">
        <ele>129.43</ele>
        <time>2014-03-16T09:25:27Z</time>
      </trkpt>
      <trkpt lat="44.67386" lon="0.8046">
        <ele>129.92</ele>
        <time>2014-03-16T09:25:44Z</time>
      </trkpt>
      <trkpt lat="44.67386" lon="0.8046">
        <ele>130.4</ele>
        <time>2014-03-16T09:26:06Z</time>
      </trkpt>
      <trkpt lat="44.67385" lon="0.80459">
        <ele>130.4</ele>
        <time>2014-03-16T09:26:32Z</time>
      </trkpt>
      <trkpt lat="44.6738" lon="0.80472">
        <ele>130.4</ele>
        <time>2014-03-16T09:26:46Z</time>
      </trkpt>
      <trkpt lat="44.67376" lon="0.80497">
        <ele>127.99</ele>
        <time>2014-03-16T09:26:52Z</time>
      </trkpt>
      <trkpt lat="44.67372" lon="0.80511">
        <ele>127.03</ele>
        <time>2014-03-16T09:26:54Z</time>
      </trkpt>
      <trkpt lat="44.67354" lon="0.80548">
        <ele>120.3</ele>
        <time>2014-03-16T09:27:03Z</time>
      </trkpt>
      <trkpt lat="44.67352" lon="0.80553">
        <ele>119.82</ele>
        <time>2014-03-16T09:27:04Z</time>
      </trkpt>
      <trkpt lat="44.67349" lon="0.80586">
        <ele>118.38</ele>
        <time>2014-03-16T09:27:09Z</time>
      </trkpt>
      <trkpt lat="44.67355" lon="0.80614">
        <ele>117.9</ele>
        <time>2014-03-16T09:27:13Z</time>
      </trkpt>
      <trkpt lat="44.67359" lon="0.80628">
        <ele>117.9</ele>
        <time>2014-03-16T09:27:15Z</time>
      </trkpt>
      <trkpt lat="44.67356" lon="0.80649">
        <ele>118.38</ele>
        <time>2014-03-16T09:27:19Z</time>
      </trkpt>
      <trkpt lat="44.67331" lon="0.807">
        <ele>117.9</ele>
        <time>2014-03-16T09:27:29Z</time>
      </trkpt>
      <trkpt lat="44.67313" lon="0.80738">
        <ele>117.42</ele>
        <time>2014-03-16T09:27:36Z</time>
      </trkpt>
      <trkpt lat="44.67317" lon="0.80796">
        <ele>116.94</ele>
        <time>2014-03-16T09:27:46Z</time>
      </trkpt>
      <trkpt lat="44.67337" lon="0.80828">
        <ele>115.98</ele>
        <time>2014-03-16T09:27:55Z</time>
      </trkpt>
      <trkpt lat="44.67378" lon="0.80841">
        <ele>115.5</ele>
        <time>2014-03-16T09:28:07Z</time>
      </trkpt>
      <trkpt lat="44.67446" lon="0.80857">
        <ele>115.98</ele>
        <time>2014-03-16T09:28:23Z</time>
      </trkpt>
      <trkpt lat="44.67488" lon="0.80889">
        <ele>116.46</ele>
        <time>2014-03-16T09:28:37Z</time>
      </trkpt>
      <trkpt lat="44.67516" lon="0.80906">
        <ele>117.42</ele>
        <time>2014-03-16T09:28:48Z</time>
      </trkpt>
      <trkpt lat="44.67554" lon="0.80939">
        <ele>117.9</ele>
        <time>2014-03-16T09:29:04Z</time>
      </trkpt>
      <trkpt lat="44.67555" lon="0.80943">
        <ele>117.9</ele>
        <time>2014-03-16T09:29:05Z</time>
      </trkpt>
      <trkpt lat="44.67552" lon="0.8096">
        <ele>118.38</ele>
        <time>2014-03-16T09:29:10Z</time>
      </trkpt>
      <trkpt lat="44.67542" lon="0.80981">
        <ele>117.42</ele>
        <time>2014-03-16T09:29:18Z</time>
      </trkpt>
      <trkpt lat="44.67514" lon="0.80987">
        <ele>116.46</ele>
        <time>2014-03-16T09:29:29Z</time>
      </trkpt>
      <trkpt lat="44.67489" lon="0.80983">
        <ele>116.46</ele>
        <time>2014-03-16T09:29:40Z</time>
      </trkpt>
      <trkpt lat="44.6748" lon="0.8098">
        <ele>116.46</ele>
        <time>2014-03-16T09:29:50Z</time>
      </trkpt>
      <trkpt lat="44.6748" lon="0.80979">
        <ele>117.42</ele>
        <time>2014-03-16T09:29:58Z</time>
      </trkpt>
      <trkpt lat="44.67451" lon="0.80981">
        <ele>117.42</ele>
        <time>2014-03-16T09:30:11Z</time>
      </trkpt>
      <trkpt lat="44.67449" lon="0.8098">
        <ele>117.42</ele>
        <time>2014-03-16T09:30:12Z</time>
      </trkpt>
      <trkpt lat="44.67425" lon="0.80977">
        <ele>117.42</ele>
        <time>2014-03-16T09:30:19Z</time>
      </trkpt>
      <trkpt lat="44.67389" lon="0.8098">
        <ele>118.38</ele>
        <time>2014-03-16T09:30:28Z</time>
      </trkpt>
      <trkpt lat="44.6733" lon="0.81019">
        <ele>117.42</ele>
        <time>2014-03-16T09:30:44Z</time>
      </trkpt>
      <trkpt lat="44.67292" lon="0.81029">
        <ele>118.38</ele>
        <time>2014-03-16T09:30:56Z</time>
      </trkpt>
      <trkpt lat="44.67266" lon="0.81019">
        <ele>117.42</ele>
        <time>2014-03-16T09:31:06Z</time>
      </trkpt>
      <trkpt lat="44.67236" lon="0.81003">
        <ele>117.42</ele>
        <time>2014-03-16T09:31:18Z</time>
      </trkpt>
      <trkpt lat="44.67195" lon="0.80993">
        <ele>119.82</ele>
        <time>2014-03-16T09:31:32Z</time>
      </trkpt>
      <trkpt lat="44.6716" lon="0.81014">
        <ele>118.86</ele>
        <time>2014-03-16T09:31:48Z</time>
      </trkpt>
      <trkpt lat="44.67142" lon="0.81041">
        <ele>116.94</ele>
        <time>2014-03-16T09:32:00Z</time>
      </trkpt>
      <trkpt lat="44.67119" lon="0.81105">
        <ele>117.42</ele>
        <time>2014-03-16T09:32:14Z</time>
      </trkpt>
      <trkpt lat="44.67109" lon="0.81139">
        <ele>118.86</ele>
        <time>2014-03-16T09:32:20Z</time>
      </trkpt>
      <trkpt lat="44.67104" lon="0.8116">
        <ele>118.86</ele>
        <time>2014-03-16T09:32:24Z</time>
      </trkpt>
      <trkpt lat="44.67093" lon="0.81215">
        <ele>118.86</ele>
        <time>2014-03-16T09:32:36Z</time>
      </trkpt>
      <trkpt lat="44.6709" lon="0.81261">
        <ele>117.9</ele>
        <time>2014-03-16T09:32:45Z</time>
      </trkpt>
      <trkpt lat="44.67093" lon="0.8129">
        <ele>117.9</ele>
        <time>2014-03-16T09:32:50Z</time>
      </trkpt>
      <trkpt lat="44.67104" lon="0.81355">
        <ele>117.9</ele>
        <time>2014-03-16T09:33:01Z</time>
      </trkpt>
      <trkpt lat="44.67112" lon="0.81412">
        <ele>118.38</ele>
        <time>2014-03-16T09:33:13Z</time>
      </trkpt>
      <trkpt lat="44.67116" lon="0.81463">
        <ele>118.86</ele>
        <time>2014-03-16T09:33:25Z</time>
      </trkpt>
      <trkpt lat="44.67121" lon="0.81524">
        <ele>119.34</ele>
        <time>2014-03-16T09:33:41Z</time>
      </trkpt>
      <trkpt lat="44.67114" lon="0.81581">
        <ele>117.9</ele>
        <time>2014-03-16T09:33:55Z</time>
      </trkpt>
      <trkpt lat="44.6711" lon="0.8167">
        <ele>116.46</ele>
        <time>2014-03-16T09:34:12Z</time>
      </trkpt>
      <trkpt lat="44.67114" lon="0.81746">
        <ele>116.46</ele>
        <time>2014-03-16T09:34:26Z</time>
      </trkpt>
      <trkpt lat="44.67119" lon="0.8181">
        <ele>115.01</ele>
        <time>2014-03-16T09:34:37Z</time>
      </trkpt>
      <trkpt lat="44.67121" lon="0.81821">
        <ele>115.01</ele>
        <time>2014-03-16T09:34:39Z</time>
      </trkpt>
      <trkpt lat="44.67141" lon="0.81891">
        <ele>117.42</ele>
        <time>2014-03-16T09:34:53Z</time>
      </trkpt>
      <trkpt lat="44.67157" lon="0.81939">
        <ele>118.38</ele>
        <time>2014-03-16T09:35:06Z</time>
      </trkpt>
      <trkpt lat="44.67172" lon="0.81979">
        <ele>118.86</ele>
        <time>2014-03-16T09:35:19Z</time>
      </trkpt>
      <trkpt lat="44.67185" lon="0.8204">
        <ele>118.38</ele>
        <time>2014-03-16T09:35:33Z</time>
      </trkpt>
      <trkpt lat="44.67186" lon="0.82061">
        <ele>118.38</ele>
        <time>2014-03-16T09:35:38Z</time>
      </trkpt>
      <trkpt lat="44.67174" lon="0.82066">
        <ele>118.38</ele>
        <time>2014-03-16T09:35:44Z</time>
      </trkpt>
      <trkpt lat="44.67145" lon="0.82055">
        <ele>118.38</ele>
        <time>2014-03-16T09:36:02Z</time>
      </trkpt>
      <trkpt lat="44.67145" lon="0.82054">
        <ele>117.9</ele>
        <time>2014-03-16T09:36:23Z</time>
      </trkpt>
      <trkpt lat="44.67144" lon="0.82052">
        <ele>119.82</ele>
        <time>2014-03-16T09:36:44Z</time>
      </trkpt>
      <trkpt lat="44.67144" lon="0.82054">
        <ele>118.38</ele>
        <time>2014-03-16T09:37:07Z</time>
      </trkpt>
      <trkpt lat="44.67144" lon="0.82054">
        <ele>117.9</ele>
        <time>2014-03-16T09:37:26Z</time>
      </trkpt>
      <trkpt lat="44.67143" lon="0.82052">
        <ele>119.82</ele>
        <time>2014-03-16T09:37:56Z</time>
      </trkpt>
      <trkpt lat="44.67143" lon="0.82052">
        <ele>119.82</ele>
        <time>2014-03-16T09:38:22Z</time>
      </trkpt>
      <trkpt lat="44.67135" lon="0.82086">
        <ele>121.26</ele>
        <time>2014-03-16T09:38:32Z</time>
      </trkpt>
      <trkpt lat="44.6712" lon="0.82132">
        <ele>124.63</ele>
        <time>2014-03-16T09:38:45Z</time>
      </trkpt>
      <trkpt lat="44.67102" lon="0.82178">
        <ele>130.88</ele>
        <time>2014-03-16T09:39:02Z</time>
      </trkpt>
      <trkpt lat="44.67084" lon="0.82228">
        <ele>134.72</ele>
        <time>2014-03-16T09:39:19Z</time>
      </trkpt>
      <trkpt lat="44.6707" lon="0.82275">
        <ele>138.57</ele>
        <time>2014-03-16T09:39:35Z</time>
      </trkpt>
      <trkpt lat="44.67052" lon="0.82318">
        <ele>140.49</ele>
        <time>2014-03-16T09:39:51Z</time>
      </trkpt>
      <trkpt lat="44.67031" lon="0.82364">
        <ele>143.37</ele>
        <time>2014-03-16T09:40:08Z</time>
      </trkpt>
      <trkpt lat="44.67013" lon="0.82415">
        <ele>144.82</ele>
        <time>2014-03-16T09:40:24Z</time>
      </trkpt>
      <trkpt lat="44.67003" lon="0.82439">
        <ele>145.3</ele>
        <time>2014-03-16T09:40:31Z</time>
      </trkpt>
      <trkpt lat="44.67005" lon="0.82452">
        <ele>145.3</ele>
        <time>2014-03-16T09:40:35Z</time>
      </trkpt>
      <trkpt lat="44.67029" lon="0.82509">
        <ele>145.78</ele>
        <time>2014-03-16T09:40:51Z</time>
      </trkpt>
      <trkpt lat="44.67034" lon="0.82571">
        <ele>146.26</ele>
        <time>2014-03-16T09:41:04Z</time>
      </trkpt>
      <trkpt lat="44.67057" lon="0.82624">
        <ele>147.7</ele>
        <time>2014-03-16T09:41:18Z</time>
      </trkpt>
      <trkpt lat="44.67073" lon="0.8267">
        <ele>147.7</ele>
        <time>2014-03-16T09:41:31Z</time>
      </trkpt>
      <trkpt lat="44.67093" lon="0.82717">
        <ele>150.1</ele>
        <time>2014-03-16T09:41:48Z</time>
      </trkpt>
      <trkpt lat="44.67107" lon="0.82751">
        <ele>148.66</ele>
        <time>2014-03-16T09:42:00Z</time>
      </trkpt>
      <trkpt lat="44.6713" lon="0.82787">
        <ele>146.74</ele>
        <time>2014-03-16T09:42:10Z</time>
      </trkpt>
      <trkpt lat="44.67177" lon="0.82857">
        <ele>139.53</ele>
        <time>2014-03-16T09:42:19Z</time>
      </trkpt>
      <trkpt lat="44.67202" lon="0.82929">
        <ele>138.09</ele>
        <time>2014-03-16T09:42:29Z</time>
      </trkpt>
      <trkpt lat="44.67209" lon="0.82951">
        <ele>138.09</ele>
        <time>2014-03-16T09:42:40Z</time>
      </trkpt>
      <trkpt lat="44.67216" lon="0.82992">
        <ele>140.49</ele>
        <time>2014-03-16T09:42:50Z</time>
      </trkpt>
      <trkpt lat="44.6723" lon="0.83031">
        <ele>142.89</ele>
        <time>2014-03-16T09:43:02Z</time>
      </trkpt>
      <trkpt lat="44.67246" lon="0.83027">
        <ele>145.78</ele>
        <time>2014-03-16T09:43:10Z</time>
      </trkpt>
      <trkpt lat="44.6727" lon="0.82997">
        <ele>149.62</ele>
        <time>2014-03-16T09:43:25Z</time>
      </trkpt>
      <trkpt lat="44.67279" lon="0.82985">
        <ele>151.54</ele>
        <time>2014-03-16T09:43:31Z</time>
      </trkpt>
      <trkpt lat="44.67303" lon="0.82972">
        <ele>153.47</ele>
        <time>2014-03-16T09:43:43Z</time>
      </trkpt>
      <trkpt lat="44.67336" lon="0.82996">
        <ele>156.35</ele>
        <time>2014-03-16T09:44:01Z</time>
      </trkpt>
      <trkpt lat="44.6736" lon="0.82991">
        <ele>158.27</ele>
        <time>2014-03-16T09:44:14Z</time>
      </trkpt>
      <trkpt lat="44.67383" lon="0.82994">
        <ele>162.6</ele>
        <time>2014-03-16T09:44:29Z</time>
      </trkpt>
      <trkpt lat="44.67392" lon="0.83019">
        <ele>165.96</ele>
        <time>2014-03-16T09:44:44Z</time>
      </trkpt>
      <trkpt lat="44.67401" lon="0.8304">
        <ele>166.45</ele>
        <time>2014-03-16T09:44:57Z</time>
      </trkpt>
      <trkpt lat="44.67403" lon="0.83047">
        <ele>166.93</ele>
        <time>2014-03-16T09:45:02Z</time>
      </trkpt>
      <trkpt lat="44.67405" lon="0.83057">
        <ele>167.89</ele>
        <time>2014-03-16T09:45:15Z</time>
      </trkpt>
      <trkpt lat="44.67407" lon="0.83061">
        <ele>167.41</ele>
        <time>2014-03-16T09:45:26Z</time>
      </trkpt>
      <trkpt lat="44.67409" lon="0.83066">
        <ele>167.89</ele>
        <time>2014-03-16T09:45:40Z</time>
      </trkpt>
      <trkpt lat="44.67417" lon="0.83093">
        <ele>172.21</ele>
        <time>2014-03-16T09:45:53Z</time>
      </trkpt>
      <trkpt lat="44.67419" lon="0.83096">
        <ele>173.17</ele>
        <time>2014-03-16T09:46:03Z</time>
      </trkpt>
      <trkpt lat="44.67429" lon="0.831">
        <ele>176.06</ele>
        <time>2014-03-16T09:46:12Z</time>
      </trkpt>
      <trkpt lat="44.67438" lon="0.83108">
        <ele>178.46</ele>
        <time>2014-03-16T09:46:21Z</time>
      </trkpt>
      <trkpt lat="44.67444" lon="0.83129">
        <ele>182.31</ele>
        <time>2014-03-16T09:46:32Z</time>
      </trkpt>
      <trkpt lat="44.67445" lon="0.83132">
        <ele>183.75</ele>
        <time>2014-03-16T09:46:44Z</time>
      </trkpt>
      <trkpt lat="44.67446" lon="0.83129">
        <ele>183.75</ele>
        <time>2014-03-16T09:47:04Z</time>
      </trkpt>
      <trkpt lat="44.67445" lon="0.83122">
        <ele>189.04</ele>
        <time>2014-03-16T09:47:28Z</time>
      </trkpt>
      <trkpt lat="44.67447" lon="0.83127">
        <ele>188.08</ele>
        <time>2014-03-16T09:47:59Z</time>
      </trkpt>
      <trkpt lat="44.6745" lon="0.8313">
        <ele>190.96</ele>
        <time>2014-03-16T09:48:28Z</time>
      </trkpt>
      <trkpt lat="44.6745" lon="0.8313">
        <ele>188.56</ele>
        <time>2014-03-16T09:49:01Z</time>
      </trkpt>
      <trkpt lat="44.67449" lon="0.83133">
        <ele>192.88</ele>
        <time>2014-03-16T09:49:31Z</time>
      </trkpt>
      <trkpt lat="44.67446" lon="0.83134">
        <ele>194.32</ele>
        <time>2014-03-16T09:49:57Z</time>
      </trkpt>
      <trkpt lat="44.67443" lon="0.83136">
        <ele>195.28</ele>
        <time>2014-03-16T09:50:18Z</time>
      </trkpt>
      <trkpt lat="44.67445" lon="0.83127">
        <ele>195.28</ele>
        <time>2014-03-16T09:50:46Z</time>
      </trkpt>
      <trkpt lat="44.67442" lon="0.83122">
        <ele>195.77</ele>
        <time>2014-03-16T09:51:17Z</time>
      </trkpt>
      <trkpt lat="44.67443" lon="0.83126">
        <ele>194.8</ele>
        <time>2014-03-16T09:51:43Z</time>
      </trkpt>
      <trkpt lat="44.67443" lon="0.83128">
        <ele>194.32</ele>
        <time>2014-03-16T09:52:14Z</time>
      </trkpt>
      <trkpt lat="44.67444" lon="0.83129">
        <ele>195.77</ele>
        <time>2014-03-16T09:52:37Z</time>
      </trkpt>
      <trkpt lat="44.67445" lon="0.83129">
        <ele>197.21</ele>
        <time>2014-03-16T09:53:12Z</time>
      </trkpt>
      <trkpt lat="44.67448" lon="0.83126">
        <ele>201.05</ele>
        <time>2014-03-16T09:53:40Z</time>
      </trkpt>
      <trkpt lat="44.67448" lon="0.83131">
        <ele>198.17</ele>
        <time>2014-03-16T09:54:08Z</time>
      </trkpt>
      <trkpt lat="44.67444" lon="0.83129">
        <ele>193.84</ele>
        <time>2014-03-16T09:54:42Z</time>
      </trkpt>
      <trkpt lat="44.67447" lon="0.83124">
        <ele>195.28</ele>
        <time>2014-03-16T09:55:16Z</time>
      </trkpt>
      <trkpt lat="44.67447" lon="0.83127">
        <ele>190</ele>
        <time>2014-03-16T09:55:52Z</time>
      </trkpt>
      <trkpt lat="44.67447" lon="0.83132">
        <ele>191.92</ele>
        <time>2014-03-16T09:56:23Z</time>
      </trkpt>
      <trkpt lat="44.67445" lon="0.83129">
        <ele>189.52</ele>
        <time>2014-03-16T09:56:46Z</time>
      </trkpt>
      <trkpt lat="44.67444" lon="0.83128">
        <ele>188.56</ele>
        <time>2014-03-16T09:57:06Z</time>
      </trkpt>
      <trkpt lat="44.67444" lon="0.83128">
        <ele>187.59</ele>
        <time>2014-03-16T09:57:21Z</time>
      </trkpt>
      <trkpt lat="44.67436" lon="0.83129">
        <ele>185.19</ele>
        <time>2014-03-16T09:57:28Z</time>
      </trkpt>
      <trkpt lat="44.67412" lon="0.83142">
        <ele>183.27</ele>
        <time>2014-03-16T09:57:40Z</time>
      </trkpt>
      <trkpt lat="44.67376" lon="0.83173">
        <ele>182.31</ele>
        <time>2014-03-16T09:57:53Z</time>
      </trkpt>
      <trkpt lat="44.67365" lon="0.83179">
        <ele>182.79</ele>
        <time>2014-03-16T09:57:56Z</time>
      </trkpt>
      <trkpt lat="44.67334" lon="0.8322">
        <ele>183.75</ele>
        <time>2014-03-16T09:58:08Z</time>
      </trkpt>
      <trkpt lat="44.67314" lon="0.8327">
        <ele>183.75</ele>
        <time>2014-03-16T09:58:19Z</time>
      </trkpt>
      <trkpt lat="44.67307" lon="0.83289">
        <ele>183.75</ele>
        <time>2014-03-16T09:58:23Z</time>
      </trkpt>
      <trkpt lat="44.67303" lon="0.83312">
        <ele>182.31</ele>
        <time>2014-03-16T09:58:26Z</time>
      </trkpt>
      <trkpt lat="44.67283" lon="0.83385">
        <ele>179.9</ele>
        <time>2014-03-16T09:58:39Z</time>
      </trkpt>
      <trkpt lat="44.67264" lon="0.83443">
        <ele>181.35</ele>
        <time>2014-03-16T09:58:49Z</time>
      </trkpt>
      <trkpt lat="44.67256" lon="0.83474">
        <ele>182.31</ele>
        <time>2014-03-16T09:58:53Z</time>
      </trkpt>
      <trkpt lat="44.6724" lon="0.8353">
        <ele>187.59</ele>
        <time>2014-03-16T09:59:04Z</time>
      </trkpt>
      <trkpt lat="44.67228" lon="0.83571">
        <ele>191.44</ele>
        <time>2014-03-16T09:59:14Z</time>
      </trkpt>
      <trkpt lat="44.67216" lon="0.83616">
        <ele>195.28</ele>
        <time>2014-03-16T09:59:26Z</time>
      </trkpt>
      <trkpt lat="44.67215" lon="0.83621">
        <ele>195.28</ele>
        <time>2014-03-16T09:59:27Z</time>
      </trkpt>
      <trkpt lat="44.67193" lon="0.83694">
        <ele>193.84</ele>
        <time>2014-03-16T09:59:40Z</time>
      </trkpt>
      <trkpt lat="44.67184" lon="0.83714">
        <ele>191.92</ele>
        <time>2014-03-16T09:59:46Z</time>
      </trkpt>
      <trkpt lat="44.67186" lon="0.83737">
        <ele>190.48</ele>
        <time>2014-03-16T09:59:54Z</time>
      </trkpt>
      <trkpt lat="44.67189" lon="0.83772">
        <ele>190.48</ele>
        <time>2014-03-16T10:00:05Z</time>
      </trkpt>
      <trkpt lat="44.67171" lon="0.83821">
        <ele>186.63</ele>
        <time>2014-03-16T10:00:16Z</time>
      </trkpt>
      <trkpt lat="44.67153" lon="0.83895">
        <ele>184.23</ele>
        <time>2014-03-16T10:00:29Z</time>
      </trkpt>
      <trkpt lat="44.67153" lon="0.83927">
        <ele>182.79</ele>
        <time>2014-03-16T10:00:34Z</time>
      </trkpt>
      <trkpt lat="44.67153" lon="0.83986">
        <ele>181.35</ele>
        <time>2014-03-16T10:00:46Z</time>
      </trkpt>
      <trkpt lat="44.67134" lon="0.84028">
        <ele>180.87</ele>
        <time>2014-03-16T10:00:58Z</time>
      </trkpt>
      <trkpt lat="44.67124" lon="0.84056">
        <ele>182.79</ele>
        <time>2014-03-16T10:01:06Z</time>
      </trkpt>
      <trkpt lat="44.6711" lon="0.84104">
        <ele>181.83</ele>
        <time>2014-03-16T10:01:17Z</time>
      </trkpt>
      <trkpt lat="44.67096" lon="0.84154">
        <ele>180.87</ele>
        <time>2014-03-16T10:01:29Z</time>
      </trkpt>
      <trkpt lat="44.67083" lon="0.84189">
        <ele>181.35</ele>
        <time>2014-03-16T10:01:39Z</time>
      </trkpt>
      <trkpt lat="44.67074" lon="0.84235">
        <ele>182.79</ele>
        <time>2014-03-16T10:01:52Z</time>
      </trkpt>
      <trkpt lat="44.67073" lon="0.84242">
        <ele>183.75</ele>
        <time>2014-03-16T10:01:54Z</time>
      </trkpt>
      <trkpt lat="44.67067" lon="0.84257">
        <ele>182.79</ele>
        <time>2014-03-16T10:01:59Z</time>
      </trkpt>
      <trkpt lat="44.67058" lon="0.84278">
        <ele>181.35</ele>
        <time>2014-03-16T10:02:08Z</time>
      </trkpt>
      <trkpt lat="44.67046" lon="0.84306">
        <ele>183.27</ele>
        <time>2014-03-16T10:02:21Z</time>
      </trkpt>
      <trkpt lat="44.67042" lon="0.84322">
        <ele>182.31</ele>
        <time>2014-03-16T10:02:30Z</time>
      </trkpt>
      <trkpt lat="44.67029" lon="0.84342">
        <ele>184.71</ele>
        <time>2014-03-16T10:02:37Z</time>
      </trkpt>
      <trkpt lat="44.67016" lon="0.84357">
        <ele>186.63</ele>
        <time>2014-03-16T10:02:45Z</time>
      </trkpt>
      <trkpt lat="44.66987" lon="0.84351">
        <ele>191.44</ele>
        <time>2014-03-16T10:02:56Z</time>
      </trkpt>
      <trkpt lat="44.66961" lon="0.84335">
        <ele>197.21</ele>
        <time>2014-03-16T10:03:07Z</time>
      </trkpt>
      <trkpt lat="44.66954" lon="0.8433">
        <ele>198.65</ele>
        <time>2014-03-16T10:03:10Z</time>
      </trkpt>
      <trkpt lat="44.66947" lon="0.84325">
        <ele>200.09</ele>
        <time>2014-03-16T10:03:17Z</time>
      </trkpt>
      <trkpt lat="44.66924" lon="0.84306">
        <ele>201.53</ele>
        <time>2014-03-16T10:03:28Z</time>
      </trkpt>
      <trkpt lat="44.6691" lon="0.84304">
        <ele>202.98</ele>
        <time>2014-03-16T10:03:36Z</time>
      </trkpt>
      <trkpt lat="44.66907" lon="0.84306">
        <ele>203.94</ele>
        <time>2014-03-16T10:03:38Z</time>
      </trkpt>
      <trkpt lat="44.669" lon="0.84301">
        <ele>203.94</ele>
        <time>2014-03-16T10:03:43Z</time>
      </trkpt>
      <trkpt lat="44.66897" lon="0.84297">
        <ele>202.49</ele>
        <time>2014-03-16T10:03:45Z</time>
      </trkpt>
      <trkpt lat="44.6689" lon="0.84286">
        <ele>201.53</ele>
        <time>2014-03-16T10:03:51Z</time>
      </trkpt>
      <trkpt lat="44.66857" lon="0.84265">
        <ele>205.86</ele>
        <time>2014-03-16T10:04:04Z</time>
      </trkpt>
      <trkpt lat="44.66842" lon="0.84253">
        <ele>208.26</ele>
        <time>2014-03-16T10:04:14Z</time>
      </trkpt>
      <trkpt lat="44.66837" lon="0.84249">
        <ele>208.26</ele>
        <time>2014-03-16T10:04:17Z</time>
      </trkpt>
      <trkpt lat="44.66804" lon="0.84229">
        <ele>211.15</ele>
        <time>2014-03-16T10:04:32Z</time>
      </trkpt>
      <trkpt lat="44.66797" lon="0.84229">
        <ele>210.67</ele>
        <time>2014-03-16T10:04:35Z</time>
      </trkpt>
      <trkpt lat="44.66768" lon="0.84221">
        <ele>212.59</ele>
        <time>2014-03-16T10:04:49Z</time>
      </trkpt>
      <trkpt lat="44.66744" lon="0.84215">
        <ele>214.03</ele>
        <time>2014-03-16T10:05:00Z</time>
      </trkpt>
      <trkpt lat="44.66726" lon="0.84211">
        <ele>215.47</ele>
        <time>2014-03-16T10:05:08Z</time>
      </trkpt>
      <trkpt lat="44.66716" lon="0.84215">
        <ele>215.47</ele>
        <time>2014-03-16T10:05:13Z</time>
      </trkpt>
      <trkpt lat="44.66709" lon="0.84222">
        <ele>215.95</ele>
        <time>2014-03-16T10:05:18Z</time>
      </trkpt>
      <trkpt lat="44.66705" lon="0.84227">
        <ele>215.95</ele>
        <time>2014-03-16T10:05:20Z</time>
      </trkpt>
      <trkpt lat="44.66686" lon="0.84229">
        <ele>215.95</ele>
        <time>2014-03-16T10:05:30Z</time>
      </trkpt>
      <trkpt lat="44.66673" lon="0.84222">
        <ele>213.55</ele>
        <time>2014-03-16T10:05:40Z</time>
      </trkpt>
      <trkpt lat="44.66673" lon="0.84228">
        <ele>206.82</ele>
        <time>2014-03-16T10:05:58Z</time>
      </trkpt>
      <trkpt lat="44.66672" lon="0.84226">
        <ele>200.57</ele>
        <time>2014-03-16T10:06:21Z</time>
      </trkpt>
      <trkpt lat="44.66671" lon="0.84223">
        <ele>200.09</ele>
        <time>2014-03-16T10:06:48Z</time>
      </trkpt>
      <trkpt lat="44.66665" lon="0.84223">
        <ele>199.61</ele>
        <time>2014-03-16T10:07:05Z</time>
      </trkpt>
      <trkpt lat="44.66634" lon="0.84233">
        <ele>198.17</ele>
        <time>2014-03-16T10:07:20Z</time>
      </trkpt>
      <trkpt lat="44.6663" lon="0.84237">
        <ele>197.69</ele>
        <time>2014-03-16T10:07:30Z</time>
      </trkpt>
      <trkpt lat="44.66631" lon="0.84237">
        <ele>198.65</ele>
        <time>2014-03-16T10:07:52Z</time>
      </trkpt>
      <trkpt lat="44.66631" lon="0.84239">
        <ele>198.65</ele>
        <time>2014-03-16T10:08:03Z</time>
      </trkpt>
      <trkpt lat="44.66634" lon="0.84258">
        <ele>198.65</ele>
        <time>2014-03-16T10:08:09Z</time>
      </trkpt>
      <trkpt lat="44.66641" lon="0.84326">
        <ele>201.53</ele>
        <time>2014-03-16T10:08:27Z</time>
      </trkpt>
      <trkpt lat="44.66648" lon="0.84399">
        <ele>203.94</ele>
        <time>2014-03-16T10:08:44Z</time>
      </trkpt>
      <trkpt lat="44.66655" lon="0.84474">
        <ele>203.46</ele>
        <time>2014-03-16T10:08:59Z</time>
      </trkpt>
      <trkpt lat="44.66656" lon="0.84484">
        <ele>203.46</ele>
        <time>2014-03-16T10:09:01Z</time>
      </trkpt>
      <trkpt lat="44.66663" lon="0.84563">
        <ele>205.38</ele>
        <time>2014-03-16T10:09:15Z</time>
      </trkpt>
      <trkpt lat="44.6667" lon="0.84625">
        <ele>207.3</ele>
        <time>2014-03-16T10:09:25Z</time>
      </trkpt>
      <trkpt lat="44.66675" lon="0.84657">
        <ele>207.78</ele>
        <time>2014-03-16T10:09:30Z</time>
      </trkpt>
      <trkpt lat="44.66691" lon="0.84746">
        <ele>209.7</ele>
        <time>2014-03-16T10:09:44Z</time>
      </trkpt>
      <trkpt lat="44.66702" lon="0.84791">
        <ele>211.15</ele>
        <time>2014-03-16T10:09:51Z</time>
      </trkpt>
      <trkpt lat="44.66725" lon="0.84889">
        <ele>208.74</ele>
        <time>2014-03-16T10:10:05Z</time>
      </trkpt>
      <trkpt lat="44.66742" lon="0.84989">
        <ele>209.22</ele>
        <time>2014-03-16T10:10:20Z</time>
      </trkpt>
      <trkpt lat="44.66743" lon="0.84995">
        <ele>209.22</ele>
        <time>2014-03-16T10:10:21Z</time>
      </trkpt>
      <trkpt lat="44.66751" lon="0.85016">
        <ele>209.22</ele>
        <time>2014-03-16T10:10:25Z</time>
      </trkpt>
      <trkpt lat="44.66787" lon="0.85084">
        <ele>211.15</ele>
        <time>2014-03-16T10:10:40Z</time>
      </trkpt>
      <trkpt lat="44.66823" lon="0.85139">
        <ele>211.15</ele>
        <time>2014-03-16T10:10:53Z</time>
      </trkpt>
      <trkpt lat="44.66865" lon="0.85203">
        <ele>211.15</ele>
        <time>2014-03-16T10:11:06Z</time>
      </trkpt>
      <trkpt lat="44.66874" lon="0.85218">
        <ele>210.19</ele>
        <time>2014-03-16T10:11:08Z</time>
      </trkpt>
      <trkpt lat="44.66886" lon="0.85274">
        <ele>207.3</ele>
        <time>2014-03-16T10:11:13Z</time>
      </trkpt>
      <trkpt lat="44.66896" lon="0.85426">
        <ele>200.57</ele>
        <time>2014-03-16T10:11:23Z</time>
      </trkpt>
      <trkpt lat="44.66903" lon="0.85498">
        <ele>197.21</ele>
        <time>2014-03-16T10:11:30Z</time>
      </trkpt>
      <trkpt lat="44.66914" lon="0.85592">
        <ele>197.69</ele>
        <time>2014-03-16T10:11:44Z</time>
      </trkpt>
      <trkpt lat="44.66933" lon="0.85712">
        <ele>201.53</ele>
        <time>2014-03-16T10:12:00Z</time>
      </trkpt>
      <trkpt lat="44.66946" lon="0.8579">
        <ele>205.86</ele>
        <time>2014-03-16T10:12:12Z</time>
      </trkpt>
      <trkpt lat="44.66948" lon="0.85805">
        <ele>205.86</ele>
        <time>2014-03-16T10:12:14Z</time>
      </trkpt>
      <trkpt lat="44.66946" lon="0.85878">
        <ele>203.46</ele>
        <time>2014-03-16T10:12:24Z</time>
      </trkpt>
      <trkpt lat="44.66946" lon="0.85883">
        <ele>202.98</ele>
        <time>2014-03-16T10:12:25Z</time>
      </trkpt>
      <trkpt lat="44.66936" lon="0.85884">
        <ele>200.57</ele>
        <time>2014-03-16T10:12:29Z</time>
      </trkpt>
      <trkpt lat="44.66922" lon="0.85876">
        <ele>200.09</ele>
        <time>2014-03-16T10:12:33Z</time>
      </trkpt>
      <trkpt lat="44.66906" lon="0.85859">
        <ele>199.61</ele>
        <time>2014-03-16T10:12:38Z</time>
      </trkpt>
      <trkpt lat="44.66889" lon="0.85801">
        <ele>199.13</ele>
        <time>2014-03-16T10:12:52Z</time>
      </trkpt>
      <trkpt lat="44.66893" lon="0.85773">
        <ele>198.17</ele>
        <time>2014-03-16T10:12:59Z</time>
      </trkpt>
      <trkpt lat="44.66885" lon="0.85759">
        <ele>197.21</ele>
        <time>2014-03-16T10:13:03Z</time>
      </trkpt>
      <trkpt lat="44.66867" lon="0.85745">
        <ele>196.25</ele>
        <time>2014-03-16T10:13:07Z</time>
      </trkpt>
      <trkpt lat="44.66846" lon="0.85716">
        <ele>195.28</ele>
        <time>2014-03-16T10:13:13Z</time>
      </trkpt>
      <trkpt lat="44.66836" lon="0.85693">
        <ele>194.32</ele>
        <time>2014-03-16T10:13:17Z</time>
      </trkpt>
      <trkpt lat="44.66831" lon="0.85684">
        <ele>193.84</ele>
        <time>2014-03-16T10:13:19Z</time>
      </trkpt>
      <trkpt lat="44.66799" lon="0.85675">
        <ele>193.84</ele>
        <time>2014-03-16T10:13:28Z</time>
      </trkpt>
      <trkpt lat="44.66799" lon="0.85671">
        <ele>193.36</ele>
        <time>2014-03-16T10:13:29Z</time>
      </trkpt>
      <trkpt lat="44.66794" lon="0.85628">
        <ele>193.36</ele>
        <time>2014-03-16T10:13:39Z</time>
      </trkpt>
      <trkpt lat="44.66783" lon="0.85616">
        <ele>193.84</ele>
        <time>2014-03-16T10:13:43Z</time>
      </trkpt>
      <trkpt lat="44.66788" lon="0.85585">
        <ele>195.28</ele>
        <time>2014-03-16T10:13:52Z</time>
      </trkpt>
      <trkpt lat="44.66803" lon="0.85567">
        <ele>195.77</ele>
        <time>2014-03-16T10:13:59Z</time>
      </trkpt>
      <trkpt lat="44.66801" lon="0.85557">
        <ele>195.28</ele>
        <time>2014-03-16T10:14:01Z</time>
      </trkpt>
      <trkpt lat="44.66811" lon="0.85508">
        <ele>194.8</ele>
        <time>2014-03-16T10:14:11Z</time>
      </trkpt>
      <trkpt lat="44.66817" lon="0.85486">
        <ele>195.28</ele>
        <time>2014-03-16T10:14:15Z</time>
      </trkpt>
      <trkpt lat="44.66791" lon="0.85462">
        <ele>193.84</ele>
        <time>2014-03-16T10:14:22Z</time>
      </trkpt>
      <trkpt lat="44.66767" lon="0.85452">
        <ele>194.32</ele>
        <time>2014-03-16T10:14:27Z</time>
      </trkpt>
      <trkpt lat="44.66751" lon="0.8545">
        <ele>194.32</ele>
        <time>2014-03-16T10:14:30Z</time>
      </trkpt>
      <trkpt lat="44.66688" lon="0.85428">
        <ele>194.8</ele>
        <time>2014-03-16T10:14:43Z</time>
      </trkpt>
      <trkpt lat="44.6665" lon="0.8541">
        <ele>193.36</ele>
        <time>2014-03-16T10:14:54Z</time>
      </trkpt>
      <trkpt lat="44.66633" lon="0.85413">
        <ele>193.36</ele>
        <time>2014-03-16T10:14:59Z</time>
      </trkpt>
      <trkpt lat="44.66631" lon="0.85417">
        <ele>193.36</ele>
        <time>2014-03-16T10:15:01Z</time>
      </trkpt>
      <trkpt lat="44.66627" lon="0.8542">
        <ele>191.92</ele>
        <time>2014-03-16T10:15:15Z</time>
      </trkpt>
      <trkpt lat="44.66625" lon="0.85416">
        <ele>192.88</ele>
        <time>2014-03-16T10:15:39Z</time>
      </trkpt>
      <trkpt lat="44.66624" lon="0.85414">
        <ele>191.92</ele>
        <time>2014-03-16T10:15:49Z</time>
      </trkpt>
      <trkpt lat="44.66618" lon="0.85413">
        <ele>191.92</ele>
        <time>2014-03-16T10:15:53Z</time>
      </trkpt>
      <trkpt lat="44.66609" lon="0.85431">
        <ele>193.84</ele>
        <time>2014-03-16T10:16:01Z</time>
      </trkpt>
      <trkpt lat="44.66595" lon="0.85457">
        <ele>196.73</ele>
        <time>2014-03-16T10:16:12Z</time>
      </trkpt>
      <trkpt lat="44.66567" lon="0.85475">
        <ele>195.77</ele>
        <time>2014-03-16T10:16:24Z</time>
      </trkpt>
      <trkpt lat="44.66535" lon="0.85489">
        <ele>192.88</ele>
        <time>2014-03-16T10:16:34Z</time>
      </trkpt>
      <trkpt lat="44.66516" lon="0.855">
        <ele>191.92</ele>
        <time>2014-03-16T10:16:40Z</time>
      </trkpt>
      <trkpt lat="44.66496" lon="0.85522">
        <ele>190.48</ele>
        <time>2014-03-16T10:16:45Z</time>
      </trkpt>
      <trkpt lat="44.66475" lon="0.85535">
        <ele>190</ele>
        <time>2014-03-16T10:16:49Z</time>
      </trkpt>
      <trkpt lat="44.66412" lon="0.85547">
        <ele>188.56</ele>
        <time>2014-03-16T10:17:01Z</time>
      </trkpt>
      <trkpt lat="44.66402" lon="0.85547">
        <ele>188.08</ele>
        <time>2014-03-16T10:17:03Z</time>
      </trkpt>
      <trkpt lat="44.66358" lon="0.85542">
        <ele>189.04</ele>
        <time>2014-03-16T10:17:13Z</time>
      </trkpt>
      <trkpt lat="44.66337" lon="0.85586">
        <ele>186.63</ele>
        <time>2014-03-16T10:17:20Z</time>
      </trkpt>
      <trkpt lat="44.66332" lon="0.85591">
        <ele>185.67</ele>
        <time>2014-03-16T10:17:21Z</time>
      </trkpt>
      <trkpt lat="44.66293" lon="0.85606">
        <ele>180.38</ele>
        <time>2014-03-16T10:17:27Z</time>
      </trkpt>
      <trkpt lat="44.66269" lon="0.85605">
        <ele>179.9</ele>
        <time>2014-03-16T10:17:31Z</time>
      </trkpt>
      <trkpt lat="44.66231" lon="0.85608">
        <ele>179.42</ele>
        <time>2014-03-16T10:17:41Z</time>
      </trkpt>
      <trkpt lat="44.66214" lon="0.85607">
        <ele>178.46</ele>
        <time>2014-03-16T10:17:47Z</time>
      </trkpt>
      <trkpt lat="44.66209" lon="0.85606">
        <ele>178.46</ele>
        <time>2014-03-16T10:17:59Z</time>
      </trkpt>
      <trkpt lat="44.66202" lon="0.85598">
        <ele>178.94</ele>
        <time>2014-03-16T10:18:05Z</time>
      </trkpt>
      <trkpt lat="44.66183" lon="0.85586">
        <ele>177.5</ele>
        <time>2014-03-16T10:18:11Z</time>
      </trkpt>
      <trkpt lat="44.66168" lon="0.85578">
        <ele>176.54</ele>
        <time>2014-03-16T10:18:14Z</time>
      </trkpt>
      <trkpt lat="44.66156" lon="0.85575">
        <ele>175.58</ele>
        <time>2014-03-16T10:18:16Z</time>
      </trkpt>
      <trkpt lat="44.66129" lon="0.85562">
        <ele>174.14</ele>
        <time>2014-03-16T10:18:21Z</time>
      </trkpt>
      <trkpt lat="44.661" lon="0.85555">
        <ele>171.73</ele>
        <time>2014-03-16T10:18:27Z</time>
      </trkpt>
      <trkpt lat="44.6608" lon="0.8556">
        <ele>170.77</ele>
        <time>2014-03-16T10:18:32Z</time>
      </trkpt>
      <trkpt lat="44.66007" lon="0.85597">
        <ele>166.93</ele>
        <time>2014-03-16T10:18:46Z</time>
      </trkpt>
      <trkpt lat="44.65997" lon="0.856">
        <ele>166.45</ele>
        <time>2014-03-16T10:18:48Z</time>
      </trkpt>
      <trkpt lat="44.65971" lon="0.85608">
        <ele>166.93</ele>
        <time>2014-03-16T10:18:59Z</time>
      </trkpt>
      <trkpt lat="44.6597" lon="0.85609">
        <ele>165</ele>
        <time>2014-03-16T10:19:23Z</time>
      </trkpt>
      <trkpt lat="44.6597" lon="0.8561">
        <ele>164.52</ele>
        <time>2014-03-16T10:19:41Z</time>
      </trkpt>
      <trkpt lat="44.65971" lon="0.8561">
        <ele>163.56</ele>
        <time>2014-03-16T10:20:05Z</time>
      </trkpt>
      <trkpt lat="44.6597" lon="0.85611">
        <ele>164.04</ele>
        <time>2014-03-16T10:20:09Z</time>
      </trkpt>
      <trkpt lat="44.65976" lon="0.85631">
        <ele>163.56</ele>
        <time>2014-03-16T10:20:17Z</time>
      </trkpt>
      <trkpt lat="44.65982" lon="0.85693">
        <ele>159.72</ele>
        <time>2014-03-16T10:20:27Z</time>
      </trkpt>
      <trkpt lat="44.65982" lon="0.85723">
        <ele>156.83</ele>
        <time>2014-03-16T10:20:32Z</time>
      </trkpt>
      <trkpt lat="44.65975" lon="0.85738">
        <ele>154.91</ele>
        <time>2014-03-16T10:20:40Z</time>
      </trkpt>
      <trkpt lat="44.6597" lon="0.85762">
        <ele>152.03</ele>
        <time>2014-03-16T10:20:49Z</time>
      </trkpt>
      <trkpt lat="44.65966" lon="0.85767">
        <ele>151.06</ele>
        <time>2014-03-16T10:20:51Z</time>
      </trkpt>
      <trkpt lat="44.65954" lon="0.85768">
        <ele>149.62</ele>
        <time>2014-03-16T10:20:54Z</time>
      </trkpt>
      <trkpt lat="44.65919" lon="0.85778">
        <ele>149.62</ele>
        <time>2014-03-16T10:21:01Z</time>
      </trkpt>
      <trkpt lat="44.6588" lon="0.85791">
        <ele>149.62</ele>
        <time>2014-03-16T10:21:07Z</time>
      </trkpt>
      <trkpt lat="44.65853" lon="0.85797">
        <ele>149.62</ele>
        <time>2014-03-16T10:21:11Z</time>
      </trkpt>
      <trkpt lat="44.65824" lon="0.858">
        <ele>148.66</ele>
        <time>2014-03-16T10:21:16Z</time>
      </trkpt>
      <trkpt lat="44.65801" lon="0.85813">
        <ele>148.66</ele>
        <time>2014-03-16T10:21:20Z</time>
      </trkpt>
      <trkpt lat="44.65782" lon="0.85821">
        <ele>147.22</ele>
        <time>2014-03-16T10:21:25Z</time>
      </trkpt>
      <trkpt lat="44.6575" lon="0.85871">
        <ele>141.45</ele>
        <time>2014-03-16T10:21:35Z</time>
      </trkpt>
      <trkpt lat="44.65742" lon="0.85882">
        <ele>140.01</ele>
        <time>2014-03-16T10:21:37Z</time>
      </trkpt>
      <trkpt lat="44.65701" lon="0.85911">
        <ele>136.64</ele>
        <time>2014-03-16T10:21:44Z</time>
      </trkpt>
      <trkpt lat="44.65682" lon="0.85903">
        <ele>133.76</ele>
        <time>2014-03-16T10:21:49Z</time>
      </trkpt>
      <trkpt lat="44.65654" lon="0.85807">
        <ele>124.15</ele>
        <time>2014-03-16T10:22:05Z</time>
      </trkpt>
      <trkpt lat="44.65637" lon="0.85756">
        <ele>124.63</ele>
        <time>2014-03-16T10:22:13Z</time>
      </trkpt>
      <trkpt lat="44.65626" lon="0.85763">
        <ele>126.55</ele>
        <time>2014-03-16T10:22:19Z</time>
      </trkpt>
      <trkpt lat="44.65591" lon="0.85824">
        <ele>127.03</ele>
        <time>2014-03-16T10:22:32Z</time>
      </trkpt>
      <trkpt lat="44.65582" lon="0.85837">
        <ele>126.55</ele>
        <time>2014-03-16T10:22:35Z</time>
      </trkpt>
      <trkpt lat="44.65524" lon="0.85907">
        <ele>127.51</ele>
        <time>2014-03-16T10:22:54Z</time>
      </trkpt>
      <trkpt lat="44.65501" lon="0.8594">
        <ele>127.03</ele>
        <time>2014-03-16T10:23:04Z</time>
      </trkpt>
      <trkpt lat="44.65512" lon="0.85967">
        <ele>126.55</ele>
        <time>2014-03-16T10:23:10Z</time>
      </trkpt>
      <trkpt lat="44.65557" lon="0.86063">
        <ele>125.11</ele>
        <time>2014-03-16T10:23:30Z</time>
      </trkpt>
      <trkpt lat="44.65566" lon="0.86087">
        <ele>126.07</ele>
        <time>2014-03-16T10:23:41Z</time>
      </trkpt>
      <trkpt lat="44.65566" lon="0.86086">
        <ele>126.07</ele>
        <time>2014-03-16T10:24:01Z</time>
      </trkpt>
      <trkpt lat="44.65567" lon="0.86086">
        <ele>126.07</ele>
        <time>2014-03-16T10:24:21Z</time>
      </trkpt>
      <trkpt lat="44.65566" lon="0.86088">
        <ele>124.15</ele>
        <time>2014-03-16T10:24:55Z</time>
      </trkpt>
      <trkpt lat="44.65567" lon="0.86088">
        <ele>123.19</ele>
        <time>2014-03-16T10:25:10Z</time>
      </trkpt>
      <trkpt lat="44.65585" lon="0.86124">
        <ele>125.11</ele>
        <time>2014-03-16T10:25:22Z</time>
      </trkpt>
      <trkpt lat="44.65599" lon="0.86154">
        <ele>125.59</ele>
        <time>2014-03-16T10:25:30Z</time>
      </trkpt>
      <trkpt lat="44.65584" lon="0.86176">
        <ele>128.47</ele>
        <time>2014-03-16T10:25:39Z</time>
      </trkpt>
      <trkpt lat="44.65577" lon="0.86183">
        <ele>130.4</ele>
        <time>2014-03-16T10:25:48Z</time>
      </trkpt>
      <trkpt lat="44.65558" lon="0.86206">
        <ele>133.28</ele>
        <time>2014-03-16T10:26:01Z</time>
      </trkpt>
      <trkpt lat="44.65552" lon="0.86243">
        <ele>137.13</ele>
        <time>2014-03-16T10:26:16Z</time>
      </trkpt>
      <trkpt lat="44.65548" lon="0.86258">
        <ele>137.61</ele>
        <time>2014-03-16T10:26:28Z</time>
      </trkpt>
      <trkpt lat="44.65546" lon="0.86261">
        <ele>139.53</ele>
        <time>2014-03-16T10:26:50Z</time>
      </trkpt>
      <trkpt lat="44.65552" lon="0.86258">
        <ele>142.41</ele>
        <time>2014-03-16T10:27:27Z</time>
      </trkpt>
      <trkpt lat="44.6555" lon="0.86259">
        <ele>141.93</ele>
        <time>2014-03-16T10:27:44Z</time>
      </trkpt>
      <trkpt lat="44.65521" lon="0.86253">
        <ele>143.37</ele>
        <time>2014-03-16T10:27:57Z</time>
      </trkpt>
      <trkpt lat="44.65514" lon="0.86266">
        <ele>142.41</ele>
        <time>2014-03-16T10:28:01Z</time>
      </trkpt>
      <trkpt lat="44.65503" lon="0.86305">
        <ele>145.78</ele>
        <time>2014-03-16T10:28:14Z</time>
      </trkpt>
      <trkpt lat="44.65491" lon="0.86344">
        <ele>148.66</ele>
        <time>2014-03-16T10:28:24Z</time>
      </trkpt>
      <trkpt lat="44.65484" lon="0.86391">
        <ele>153.47</ele>
        <time>2014-03-16T10:28:35Z</time>
      </trkpt>
      <trkpt lat="44.65487" lon="0.86442">
        <ele>157.31</ele>
        <time>2014-03-16T10:28:46Z</time>
      </trkpt>
      <trkpt lat="44.65491" lon="0.86501">
        <ele>157.79</ele>
        <time>2014-03-16T10:28:59Z</time>
      </trkpt>
      <trkpt lat="44.65494" lon="0.8654">
        <ele>158.75</ele>
        <time>2014-03-16T10:29:10Z</time>
      </trkpt>
      <trkpt lat="44.65494" lon="0.86576">
        <ele>161.64</ele>
        <time>2014-03-16T10:29:23Z</time>
      </trkpt>
      <trkpt lat="44.65492" lon="0.86605">
        <ele>163.08</ele>
        <time>2014-03-16T10:29:34Z</time>
      </trkpt>
      <trkpt lat="44.6549" lon="0.86616">
        <ele>164.04</ele>
        <time>2014-03-16T10:29:39Z</time>
      </trkpt>
      <trkpt lat="44.65482" lon="0.8663">
        <ele>164.52</ele>
        <time>2014-03-16T10:29:46Z</time>
      </trkpt>
      <trkpt lat="44.65476" lon="0.86637">
        <ele>164.04</ele>
        <time>2014-03-16T10:29:48Z</time>
      </trkpt>
      <trkpt lat="44.65435" lon="0.86671">
        <ele>160.68</ele>
        <time>2014-03-16T10:29:56Z</time>
      </trkpt>
      <trkpt lat="44.6539" lon="0.86684">
        <ele>152.03</ele>
        <time>2014-03-16T10:30:06Z</time>
      </trkpt>
      <trkpt lat="44.6537" lon="0.86702">
        <ele>146.26</ele>
        <time>2014-03-16T10:30:12Z</time>
      </trkpt>
      <trkpt lat="44.65361" lon="0.86764">
        <ele>137.61</ele>
        <time>2014-03-16T10:30:24Z</time>
      </trkpt>
      <trkpt lat="44.65354" lon="0.8684">
        <ele>137.61</ele>
        <time>2014-03-16T10:30:38Z</time>
      </trkpt>
      <trkpt lat="44.65344" lon="0.86901">
        <ele>140.49</ele>
        <time>2014-03-16T10:30:50Z</time>
      </trkpt>
      <trkpt lat="44.65321" lon="0.86941">
        <ele>143.37</ele>
        <time>2014-03-16T10:31:02Z</time>
      </trkpt>
      <trkpt lat="44.65306" lon="0.86963">
        <ele>147.22</ele>
        <time>2014-03-16T10:31:10Z</time>
      </trkpt>
      <trkpt lat="44.65269" lon="0.8699">
        <ele>152.03</ele>
        <time>2014-03-16T10:31:21Z</time>
      </trkpt>
      <trkpt lat="44.65254" lon="0.87003">
        <ele>152.99</ele>
        <time>2014-03-16T10:31:25Z</time>
      </trkpt>
      <trkpt lat="44.65206" lon="0.87043">
        <ele>153.95</ele>
        <time>2014-03-16T10:31:39Z</time>
      </trkpt>
      <trkpt lat="44.65165" lon="0.87077">
        <ele>153.47</ele>
        <time>2014-03-16T10:31:53Z</time>
      </trkpt>
      <trkpt lat="44.65124" lon="0.87111">
        <ele>153.47</ele>
        <time>2014-03-16T10:32:06Z</time>
      </trkpt>
      <trkpt lat="44.65088" lon="0.87148">
        <ele>153.47</ele>
        <time>2014-03-16T10:32:18Z</time>
      </trkpt>
      <trkpt lat="44.65055" lon="0.87216">
        <ele>156.35</ele>
        <time>2014-03-16T10:32:33Z</time>
      </trkpt>
      <trkpt lat="44.65049" lon="0.87242">
        <ele>157.79</ele>
        <time>2014-03-16T10:32:38Z</time>
      </trkpt>
      <trkpt lat="44.65033" lon="0.87304">
        <ele>160.2</ele>
        <time>2014-03-16T10:32:50Z</time>
      </trkpt>
      <trkpt lat="44.65012" lon="0.87341">
        <ele>161.64</ele>
        <time>2014-03-16T10:32:59Z</time>
      </trkpt>
      <trkpt lat="44.64989" lon="0.87383">
        <ele>165</ele>
        <time>2014-03-16T10:33:09Z</time>
      </trkpt>
      <trkpt lat="44.64987" lon="0.87386">
        <ele>165.48</ele>
        <time>2014-03-16T10:33:10Z</time>
      </trkpt>
      <trkpt lat="44.64964" lon="0.87385">
        <ele>163.56</ele>
        <time>2014-03-16T10:33:20Z</time>
      </trkpt>
      <trkpt lat="44.64952" lon="0.87384">
        <ele>161.16</ele>
        <time>2014-03-16T10:33:25Z</time>
      </trkpt>
      <trkpt lat="44.64931" lon="0.87401">
        <ele>157.31</ele>
        <time>2014-03-16T10:33:38Z</time>
      </trkpt>
      <trkpt lat="44.6493" lon="0.87404">
        <ele>157.79</ele>
        <time>2014-03-16T10:33:54Z</time>
      </trkpt>
      <trkpt lat="44.64926" lon="0.87402">
        <ele>158.27</ele>
        <time>2014-03-16T10:34:06Z</time>
      </trkpt>
      <trkpt lat="44.6491" lon="0.87403">
        <ele>158.75</ele>
        <time>2014-03-16T10:34:17Z</time>
      </trkpt>
      <trkpt lat="44.64897" lon="0.87405">
        <ele>159.24</ele>
        <time>2014-03-16T10:34:28Z</time>
      </trkpt>
      <trkpt lat="44.64893" lon="0.87406">
        <ele>158.27</ele>
        <time>2014-03-16T10:34:44Z</time>
      </trkpt>
      <trkpt lat="44.6488" lon="0.87404">
        <ele>159.72</ele>
        <time>2014-03-16T10:35:03Z</time>
      </trkpt>
      <trkpt lat="44.64859" lon="0.87396">
        <ele>161.64</ele>
        <time>2014-03-16T10:35:14Z</time>
      </trkpt>
      <trkpt lat="44.64829" lon="0.87394">
        <ele>162.12</ele>
        <time>2014-03-16T10:35:31Z</time>
      </trkpt>
      <trkpt lat="44.64807" lon="0.87385">
        <ele>165</ele>
        <time>2014-03-16T10:35:43Z</time>
      </trkpt>
      <trkpt lat="44.64783" lon="0.8738">
        <ele>170.77</ele>
        <time>2014-03-16T10:35:56Z</time>
      </trkpt>
      <trkpt lat="44.64781" lon="0.87379">
        <ele>170.77</ele>
        <time>2014-03-16T10:35:57Z</time>
      </trkpt>
      <trkpt lat="44.6476" lon="0.87375">
        <ele>172.21</ele>
        <time>2014-03-16T10:36:08Z</time>
      </trkpt>
      <trkpt lat="44.64736" lon="0.87383">
        <ele>174.14</ele>
        <time>2014-03-16T10:36:19Z</time>
      </trkpt>
      <trkpt lat="44.6471" lon="0.87398">
        <ele>171.25</ele>
        <time>2014-03-16T10:36:30Z</time>
      </trkpt>
      <trkpt lat="44.64702" lon="0.87403">
        <ele>171.25</ele>
        <time>2014-03-16T10:36:35Z</time>
      </trkpt>
      <trkpt lat="44.64677" lon="0.87419">
        <ele>172.21</ele>
        <time>2014-03-16T10:36:50Z</time>
      </trkpt>
      <trkpt lat="44.64659" lon="0.87428">
        <ele>170.77</ele>
        <time>2014-03-16T10:37:02Z</time>
      </trkpt>
      <trkpt lat="44.64638" lon="0.87445">
        <ele>175.1</ele>
        <time>2014-03-16T10:37:17Z</time>
      </trkpt>
      <trkpt lat="44.64624" lon="0.87449">
        <ele>180.87</ele>
        <time>2014-03-16T10:37:28Z</time>
      </trkpt>
      <trkpt lat="44.64633" lon="0.87482">
        <ele>176.06</ele>
        <time>2014-03-16T10:37:36Z</time>
      </trkpt>
      <trkpt lat="44.64635" lon="0.87514">
        <ele>169.81</ele>
        <time>2014-03-16T10:37:42Z</time>
      </trkpt>
      <trkpt lat="44.64631" lon="0.8752">
        <ele>168.85</ele>
        <time>2014-03-16T10:37:46Z</time>
      </trkpt>
      <trkpt lat="44.64623" lon="0.87526">
        <ele>168.37</ele>
        <time>2014-03-16T10:38:02Z</time>
      </trkpt>
      <trkpt lat="44.64621" lon="0.87525">
        <ele>167.89</ele>
        <time>2014-03-16T10:38:25Z</time>
      </trkpt>
      <trkpt lat="44.64623" lon="0.87527">
        <ele>165</ele>
        <time>2014-03-16T10:39:01Z</time>
      </trkpt>
      <trkpt lat="44.64613" lon="0.8753">
        <ele>165.96</ele>
        <time>2014-03-16T10:39:30Z</time>
      </trkpt>
      <trkpt lat="44.64589" lon="0.87543">
        <ele>165.96</ele>
        <time>2014-03-16T10:39:45Z</time>
      </trkpt>
      <trkpt lat="44.6458" lon="0.87552">
        <ele>165.96</ele>
        <time>2014-03-16T10:39:52Z</time>
      </trkpt>
      <trkpt lat="44.64568" lon="0.87569">
        <ele>170.77</ele>
        <time>2014-03-16T10:40:07Z</time>
      </trkpt>
      <trkpt lat="44.6456" lon="0.87589">
        <ele>175.58</ele>
        <time>2014-03-16T10:40:19Z</time>
      </trkpt>
      <trkpt lat="44.64558" lon="0.87594">
        <ele>178.46</ele>
        <time>2014-03-16T10:40:23Z</time>
      </trkpt>
      <trkpt lat="44.64556" lon="0.8761">
        <ele>180.38</ele>
        <time>2014-03-16T10:40:35Z</time>
      </trkpt>
      <trkpt lat="44.64551" lon="0.87634">
        <ele>184.71</ele>
        <time>2014-03-16T10:40:49Z</time>
      </trkpt>
      <trkpt lat="44.64545" lon="0.87653">
        <ele>187.11</ele>
        <time>2014-03-16T10:41:02Z</time>
      </trkpt>
      <trkpt lat="44.64542" lon="0.87662">
        <ele>187.59</ele>
        <time>2014-03-16T10:41:08Z</time>
      </trkpt>
      <trkpt lat="44.64539" lon="0.87669">
        <ele>188.56</ele>
        <time>2014-03-16T10:41:12Z</time>
      </trkpt>
      <trkpt lat="44.64526" lon="0.87697">
        <ele>190.96</ele>
        <time>2014-03-16T10:41:28Z</time>
      </trkpt>
      <trkpt lat="44.64525" lon="0.87701">
        <ele>190.96</ele>
        <time>2014-03-16T10:41:30Z</time>
      </trkpt>
      <trkpt lat="44.64523" lon="0.87712">
        <ele>191.92</ele>
        <time>2014-03-16T10:41:37Z</time>
      </trkpt>
      <trkpt lat="44.64516" lon="0.87726">
        <ele>193.36</ele>
        <time>2014-03-16T10:41:44Z</time>
      </trkpt>
      <trkpt lat="44.64515" lon="0.87748">
        <ele>194.32</ele>
        <time>2014-03-16T10:41:56Z</time>
      </trkpt>
      <trkpt lat="44.64514" lon="0.87753">
        <ele>195.28</ele>
        <time>2014-03-16T10:41:59Z</time>
      </trkpt>
      <trkpt lat="44.64502" lon="0.87766">
        <ele>196.25</ele>
        <time>2014-03-16T10:42:14Z</time>
      </trkpt>
      <trkpt lat="44.64501" lon="0.87773">
        <ele>193.36</ele>
        <time>2014-03-16T10:42:35Z</time>
      </trkpt>
      <trkpt lat="44.64494" lon="0.87783">
        <ele>193.84</ele>
        <time>2014-03-16T10:42:47Z</time>
      </trkpt>
      <trkpt lat="44.64491" lon="0.87819">
        <ele>191.92</ele>
        <time>2014-03-16T10:43:01Z</time>
      </trkpt>
      <trkpt lat="44.64491" lon="0.87845">
        <ele>185.19</ele>
        <time>2014-03-16T10:43:14Z</time>
      </trkpt>
      <trkpt lat="44.64491" lon="0.87847">
        <ele>187.11</ele>
        <time>2014-03-16T10:43:46Z</time>
      </trkpt>
      <trkpt lat="44.64492" lon="0.87845">
        <ele>182.79</ele>
        <time>2014-03-16T10:44:08Z</time>
      </trkpt>
      <trkpt lat="44.6449" lon="0.87848">
        <ele>183.27</ele>
        <time>2014-03-16T10:44:35Z</time>
      </trkpt>
      <trkpt lat="44.6449" lon="0.87849">
        <ele>184.23</ele>
        <time>2014-03-16T10:45:09Z</time>
      </trkpt>
      <trkpt lat="44.64495" lon="0.87851">
        <ele>183.27</ele>
        <time>2014-03-16T10:45:41Z</time>
      </trkpt>
      <trkpt lat="44.64501" lon="0.87845">
        <ele>189.04</ele>
        <time>2014-03-16T10:46:09Z</time>
      </trkpt>
      <trkpt lat="44.64498" lon="0.87844">
        <ele>187.59</ele>
        <time>2014-03-16T10:46:38Z</time>
      </trkpt>
      <trkpt lat="44.64494" lon="0.87845">
        <ele>184.23</ele>
        <time>2014-03-16T10:47:12Z</time>
      </trkpt>
      <trkpt lat="44.64498" lon="0.87847">
        <ele>184.71</ele>
        <time>2014-03-16T10:47:33Z</time>
      </trkpt>
      <trkpt lat="44.64494" lon="0.87845">
        <ele>178.46</ele>
        <time>2014-03-16T10:48:09Z</time>
      </trkpt>
      <trkpt lat="44.64494" lon="0.87846">
        <ele>185.19</ele>
        <time>2014-03-16T10:48:47Z</time>
      </trkpt>
      <trkpt lat="44.64496" lon="0.87844">
        <ele>193.84</ele>
        <time>2014-03-16T10:49:28Z</time>
      </trkpt>
      <trkpt lat="44.64501" lon="0.87845">
        <ele>194.8</ele>
        <time>2014-03-16T10:49:53Z</time>
      </trkpt>
      <trkpt lat="44.64497" lon="0.87846">
        <ele>192.88</ele>
        <time>2014-03-16T10:50:16Z</time>
      </trkpt>
      <trkpt lat="44.64499" lon="0.87848">
        <ele>192.4</ele>
        <time>2014-03-16T10:50:52Z</time>
      </trkpt>
      <trkpt lat="44.64498" lon="0.87847">
        <ele>194.32</ele>
        <time>2014-03-16T10:51:35Z</time>
      </trkpt>
      <trkpt lat="44.64502" lon="0.87846">
        <ele>196.25</ele>
        <time>2014-03-16T10:52:12Z</time>
      </trkpt>
      <trkpt lat="44.64498" lon="0.87847">
        <ele>197.69</ele>
        <time>2014-03-16T10:52:59Z</time>
      </trkpt>
      <trkpt lat="44.645" lon="0.87847">
        <ele>191.92</ele>
        <time>2014-03-16T10:53:41Z</time>
      </trkpt>
      <trkpt lat="44.64498" lon="0.87846">
        <ele>188.08</ele>
        <time>2014-03-16T10:54:27Z</time>
      </trkpt>
      <trkpt lat="44.64496" lon="0.87848">
        <ele>190</ele>
        <time>2014-03-16T10:55:02Z</time>
      </trkpt>
      <trkpt lat="44.64492" lon="0.87848">
        <ele>190.96</ele>
        <time>2014-03-16T10:55:19Z</time>
      </trkpt>
      <trkpt lat="44.6449" lon="0.87856">
        <ele>189.52</ele>
        <time>2014-03-16T10:55:48Z</time>
      </trkpt>
      <trkpt lat="44.64495" lon="0.87857">
        <ele>190.48</ele>
        <time>2014-03-16T10:56:11Z</time>
      </trkpt>
      <trkpt lat="44.64483" lon="0.8788">
        <ele>187.11</ele>
        <time>2014-03-16T10:56:17Z</time>
      </trkpt>
      <trkpt lat="44.64465" lon="0.87922">
        <ele>185.19</ele>
        <time>2014-03-16T10:56:26Z</time>
      </trkpt>
      <trkpt lat="44.64438" lon="0.87931">
        <ele>190.96</ele>
        <time>2014-03-16T10:56:36Z</time>
      </trkpt>
      <trkpt lat="44.64405" lon="0.87939">
        <ele>194.32</ele>
        <time>2014-03-16T10:56:45Z</time>
      </trkpt>
      <trkpt lat="44.64395" lon="0.87945">
        <ele>195.28</ele>
        <time>2014-03-16T10:56:48Z</time>
      </trkpt>
      <trkpt lat="44.64369" lon="0.87948">
        <ele>195.77</ele>
        <time>2014-03-16T10:56:59Z</time>
      </trkpt>
      <trkpt lat="44.6435" lon="0.87949">
        <ele>195.28</ele>
        <time>2014-03-16T10:57:10Z</time>
      </trkpt>
      <trkpt lat="44.64329" lon="0.87951">
        <ele>196.25</ele>
        <time>2014-03-16T10:57:19Z</time>
      </trkpt>
      <trkpt lat="44.64319" lon="0.87953">
        <ele>196.73</ele>
        <time>2014-03-16T10:57:44Z</time>
      </trkpt>
      <trkpt lat="44.64305" lon="0.87957">
        <ele>195.77</ele>
        <time>2014-03-16T10:57:55Z</time>
      </trkpt>
      <trkpt lat="44.64282" lon="0.87967">
        <ele>200.09</ele>
        <time>2014-03-16T10:58:10Z</time>
      </trkpt>
      <trkpt lat="44.64259" lon="0.87979">
        <ele>202.49</ele>
        <time>2014-03-16T10:58:22Z</time>
      </trkpt>
      <trkpt lat="44.64246" lon="0.87988">
        <ele>202.98</ele>
        <time>2014-03-16T10:58:37Z</time>
      </trkpt>
      <trkpt lat="44.64219" lon="0.88005">
        <ele>205.38</ele>
        <time>2014-03-16T10:58:47Z</time>
      </trkpt>
      <trkpt lat="44.64202" lon="0.88022">
        <ele>208.26</ele>
        <time>2014-03-16T10:58:56Z</time>
      </trkpt>
      <trkpt lat="44.64191" lon="0.8803">
        <ele>208.74</ele>
        <time>2014-03-16T10:59:21Z</time>
      </trkpt>
      <trkpt lat="44.64173" lon="0.8806">
        <ele>206.82</ele>
        <time>2014-03-16T10:59:34Z</time>
      </trkpt>
      <trkpt lat="44.64167" lon="0.88063">
        <ele>206.34</ele>
        <time>2014-03-16T10:59:37Z</time>
      </trkpt>
      <trkpt lat="44.64157" lon="0.88058">
        <ele>204.42</ele>
        <time>2014-03-16T10:59:46Z</time>
      </trkpt>
      <trkpt lat="44.64138" lon="0.88061">
        <ele>202.01</ele>
        <time>2014-03-16T10:59:56Z</time>
      </trkpt>
      <trkpt lat="44.64116" lon="0.88083">
        <ele>200.57</ele>
        <time>2014-03-16T11:00:12Z</time>
      </trkpt>
      <trkpt lat="44.64085" lon="0.88102">
        <ele>198.65</ele>
        <time>2014-03-16T11:00:23Z</time>
      </trkpt>
      <trkpt lat="44.64067" lon="0.88145">
        <ele>197.21</ele>
        <time>2014-03-16T11:00:33Z</time>
      </trkpt>
      <trkpt lat="44.64052" lon="0.88144">
        <ele>195.77</ele>
        <time>2014-03-16T11:00:37Z</time>
      </trkpt>
      <trkpt lat="44.63973" lon="0.88115">
        <ele>198.65</ele>
        <time>2014-03-16T11:00:55Z</time>
      </trkpt>
      <trkpt lat="44.63913" lon="0.88096">
        <ele>199.13</ele>
        <time>2014-03-16T11:01:10Z</time>
      </trkpt>
      <trkpt lat="44.63845" lon="0.88071">
        <ele>201.05</ele>
        <time>2014-03-16T11:01:27Z</time>
      </trkpt>
      <trkpt lat="44.63793" lon="0.88049">
        <ele>203.46</ele>
        <time>2014-03-16T11:01:42Z</time>
      </trkpt>
      <trkpt lat="44.63737" lon="0.88018">
        <ele>202.01</ele>
        <time>2014-03-16T11:01:58Z</time>
      </trkpt>
      <trkpt lat="44.63665" lon="0.87976">
        <ele>206.34</ele>
        <time>2014-03-16T11:02:17Z</time>
      </trkpt>
      <trkpt lat="44.63625" lon="0.87954">
        <ele>209.7</ele>
        <time>2014-03-16T11:02:28Z</time>
      </trkpt>
      <trkpt lat="44.63612" lon="0.87945">
        <ele>209.7</ele>
        <time>2014-03-16T11:02:31Z</time>
      </trkpt>
      <trkpt lat="44.63585" lon="0.87919">
        <ele>208.74</ele>
        <time>2014-03-16T11:02:36Z</time>
      </trkpt>
      <trkpt lat="44.63509" lon="0.87833">
        <ele>201.53</ele>
        <time>2014-03-16T11:02:48Z</time>
      </trkpt>
      <trkpt lat="44.63496" lon="0.87802">
        <ele>200.57</ele>
        <time>2014-03-16T11:02:52Z</time>
      </trkpt>
      <trkpt lat="44.63465" lon="0.8767">
        <ele>199.13</ele>
        <time>2014-03-16T11:03:06Z</time>
      </trkpt>
      <trkpt lat="44.6343" lon="0.87563">
        <ele>201.53</ele>
        <time>2014-03-16T11:03:19Z</time>
      </trkpt>
      <trkpt lat="44.63403" lon="0.875">
        <ele>203.46</ele>
        <time>2014-03-16T11:03:30Z</time>
      </trkpt>
      <trkpt lat="44.63368" lon="0.87418">
        <ele>206.34</ele>
        <time>2014-03-16T11:03:47Z</time>
      </trkpt>
      <trkpt lat="44.63345" lon="0.87368">
        <ele>210.19</ele>
        <time>2014-03-16T11:04:00Z</time>
      </trkpt>
      <trkpt lat="44.63321" lon="0.87333">
        <ele>212.11</ele>
        <time>2014-03-16T11:04:12Z</time>
      </trkpt>
      <trkpt lat="44.63301" lon="0.87281">
        <ele>213.55</ele>
        <time>2014-03-16T11:04:24Z</time>
      </trkpt>
      <trkpt lat="44.63286" lon="0.87198">
        <ele>213.07</ele>
        <time>2014-03-16T11:04:40Z</time>
      </trkpt>
      <trkpt lat="44.63253" lon="0.8714">
        <ele>211.63</ele>
        <time>2014-03-16T11:04:50Z</time>
      </trkpt>
      <trkpt lat="44.63219" lon="0.87117">
        <ele>211.15</ele>
        <time>2014-03-16T11:04:57Z</time>
      </trkpt>
      <trkpt lat="44.63197" lon="0.87107">
        <ele>210.19</ele>
        <time>2014-03-16T11:05:01Z</time>
      </trkpt>
      <trkpt lat="44.63162" lon="0.87108">
        <ele>209.7</ele>
        <time>2014-03-16T11:05:07Z</time>
      </trkpt>
      <trkpt lat="44.63119" lon="0.87122">
        <ele>208.26</ele>
        <time>2014-03-16T11:05:15Z</time>
      </trkpt>
      <trkpt lat="44.63119" lon="0.87137">
        <ele>208.74</ele>
        <time>2014-03-16T11:05:19Z</time>
      </trkpt>
      <trkpt lat="44.63133" lon="0.87169">
        <ele>211.63</ele>
        <time>2014-03-16T11:05:26Z</time>
      </trkpt>
      <trkpt lat="44.63131" lon="0.87179">
        <ele>215.47</ele>
        <time>2014-03-16T11:05:35Z</time>
      </trkpt>
      <trkpt lat="44.63135" lon="0.87182">
        <ele>217.88</ele>
        <time>2014-03-16T11:06:07Z</time>
      </trkpt>
      <trkpt lat="44.63137" lon="0.87179">
        <ele>218.36</ele>
        <time>2014-03-16T11:06:44Z</time>
      </trkpt>
      <trkpt lat="44.63138" lon="0.87181">
        <ele>221.24</ele>
        <time>2014-03-16T11:07:16Z</time>
      </trkpt>
      <trkpt lat="44.63142" lon="0.87177">
        <ele>222.2</ele>
        <time>2014-03-16T11:07:46Z</time>
      </trkpt>
      <trkpt lat="44.63142" lon="0.87176">
        <ele>223.16</ele>
        <time>2014-03-16T11:08:10Z</time>
      </trkpt>
      <trkpt lat="44.6314" lon="0.87179">
        <ele>223.16</ele>
        <time>2014-03-16T11:08:31Z</time>
      </trkpt>
      <trkpt lat="44.63138" lon="0.8718">
        <ele>225.09</ele>
        <time>2014-03-16T11:09:02Z</time>
      </trkpt>
      <trkpt lat="44.63139" lon="0.8718">
        <ele>224.12</ele>
        <time>2014-03-16T11:09:23Z</time>
      </trkpt>
      <trkpt lat="44.6314" lon="0.87182">
        <ele>224.12</ele>
        <time>2014-03-16T11:09:55Z</time>
      </trkpt>
      <trkpt lat="44.6314" lon="0.87181">
        <ele>223.64</ele>
        <time>2014-03-16T11:10:26Z</time>
      </trkpt>
      <trkpt lat="44.63139" lon="0.87179">
        <ele>222.2</ele>
        <time>2014-03-16T11:10:55Z</time>
      </trkpt>
      <trkpt lat="44.63137" lon="0.87181">
        <ele>224.12</ele>
        <time>2014-03-16T11:11:29Z</time>
      </trkpt>
      <trkpt lat="44.63142" lon="0.87177">
        <ele>227.97</ele>
        <time>2014-03-16T11:11:57Z</time>
      </trkpt>
      <trkpt lat="44.63144" lon="0.87174">
        <ele>229.89</ele>
        <time>2014-03-16T11:12:29Z</time>
      </trkpt>
      <trkpt lat="44.63143" lon="0.87172">
        <ele>229.41</ele>
        <time>2014-03-16T11:13:00Z</time>
      </trkpt>
      <trkpt lat="44.63139" lon="0.87177">
        <ele>224.12</ele>
        <time>2014-03-16T11:13:29Z</time>
      </trkpt>
      <trkpt lat="44.63137" lon="0.87179">
        <ele>224.12</ele>
        <time>2014-03-16T11:14:03Z</time>
      </trkpt>
      <trkpt lat="44.63141" lon="0.87175">
        <ele>225.09</ele>
        <time>2014-03-16T11:14:40Z</time>
      </trkpt>
      <trkpt lat="44.63143" lon="0.87174">
        <ele>222.2</ele>
        <time>2014-03-16T11:15:08Z</time>
      </trkpt>
      <trkpt lat="44.63147" lon="0.87174">
        <ele>226.53</ele>
        <time>2014-03-16T11:15:45Z</time>
      </trkpt>
      <trkpt lat="44.63146" lon="0.87175">
        <ele>226.05</ele>
        <time>2014-03-16T11:16:18Z</time>
      </trkpt>
      <trkpt lat="44.63142" lon="0.87178">
        <ele>227.01</ele>
        <time>2014-03-16T11:17:01Z</time>
      </trkpt>
      <trkpt lat="44.63143" lon="0.8718">
        <ele>232.3</ele>
        <time>2014-03-16T11:17:33Z</time>
      </trkpt>
      <trkpt lat="44.63141" lon="0.8718">
        <ele>230.85</ele>
        <time>2014-03-16T11:18:06Z</time>
      </trkpt>
    </trkseg>
  </trk>
</gpx>